Observation data for Amarillo 7 South Southeast on 11/18/2019      Previous  Date       Current Mesonet Observations  Soil Data  Daily Summary Page  Observations in Plain Language
KAM1 180600Z 23005KT 02/M01 A3005 RMK A01 T00171011  RH  082%=      5-min Rain = 0
KAM1 180601Z 23005KT 02/M01 A3005 RMK A01 T00161012  RH  082%=      5-min Rain = 0
KAM1 180602Z 23005KT 02/M01 A3005 RMK A01 T00161012  RH  082%=      5-min Rain = 0
KAM1 180603Z 23005KT 02/M01 A3005 RMK A01 T00151012  RH  082%=      5-min Rain = 0
KAM1 180604Z 23005KT 01/M01 A3005 RMK A01 T00141012  RH  082%=      5-min Rain = 0
KAM1 180605Z 23005KT 01/M01 A3005 RMK A01 T00131013  RH  083%=      5-min Rain = 0
KAM1 180606Z 23005KT 01/M01 A3005 RMK A01 T00121013  RH  083%=      5-min Rain = 0
KAM1 180607Z 23005KT 01/M01 A3005 RMK A01 T00121013  RH  083%=      5-min Rain = 0
KAM1 180608Z 23005KT 01/M01 A3005 RMK A01 T00111014  RH  084%=      5-min Rain = 0
KAM1 180609Z 23005KT 01/M01 A3005 RMK A01 T00111013  RH  084%=      5-min Rain = 0
KAM1 180610Z 23005KT 01/M01 A3005 RMK A01 T00101013  RH  085%=      5-min Rain = 0
KAM1 180611Z 23005KT 01/M01 A3005 RMK A01 T00101013  RH  085%=      5-min Rain = 0
KAM1 180612Z 23005KT 01/M01 A3005 RMK A01 T00101013  RH  085%=      5-min Rain = 0
KAM1 180613Z 23005KT 01/M01 A3005 RMK A01 T00091013  RH  085%=      5-min Rain = 0
KAM1 180614Z 23005KT 01/M01 A3005 RMK A01 T00091013  RH  086%=      5-min Rain = 0
KAM1 180615Z 23005KT 01/M01 A3005 RMK A01 T00081013  RH  086%=      5-min Rain = 0
KAM1 180616Z 23005KT 01/M01 A3005 RMK A01 T00081012  RH  086%=      5-min Rain = 0
KAM1 180617Z 23005KT 01/M01 A3005 RMK A01 T00071013  RH  086%=      5-min Rain = 0
KAM1 180618Z 23005KT 01/M01 A3005 RMK A01 T00071013  RH  087%=      5-min Rain = 0
KAM1 180619Z 23004KT 01/M01 A3005 RMK A01 T00061013  RH  087%=      5-min Rain = 0
KAM1 180620Z 23004KT 01/M01 A3005 RMK A01 T00061014  RH  086%=      5-min Rain = 0
KAM1 180621Z 23004KT 01/M02 A3005 RMK A01 T00051015  RH  086%=      5-min Rain = 0
KAM1 180622Z 24004KT 00/M02 A3004 RMK A01 T00041016  RH  086%=      5-min Rain = 0
KAM1 180623Z 24004KT 00/M02 A3004 RMK A01 T00031016  RH  087%=      5-min Rain = 0
KAM1 180624Z 24004KT 00/M02 A3004 RMK A01 T00031015  RH  088%=      5-min Rain = 0
KAM1 180625Z 24004KT 00/M01 A3004 RMK A01 T00021014  RH  089%=      5-min Rain = 0
KAM1 180626Z 23004KT 00/M01 A3004 RMK A01 T00021012  RH  090%=      5-min Rain = 0
KAM1 180627Z 24004KT 00/M01 A3004 RMK A01 T00021011  RH  091%=      5-min Rain = 0
KAM1 180628Z 23004KT 00/M01 A3004 RMK A01 T00031010  RH  091%=      5-min Rain = 0
KAM1 180629Z 23004KT 00/M01 A3004 RMK A01 T00031010  RH  091%=      5-min Rain = 0
KAM1 180630Z 23004KT 00/M01 A3004 RMK A01 T00031010  RH  091%=      5-min Rain = 0
KAM1 180631Z 24004KT 00/M01 A3004 RMK A01 T00031010  RH  091%=      5-min Rain = 0
KAM1 180632Z 24004KT 00/M01 A3004 RMK A01 T00031010  RH  091%=      5-min Rain = 0
KAM1 180633Z 24004KT 00/M01 A3004 RMK A01 T00031010  RH  091%=      5-min Rain = 0
KAM1 180634Z 24004KT 00/M01 A3004 RMK A01 T00031010  RH  091%=      5-min Rain = 0
KAM1 180635Z 24005KT 00/M01 A3004 RMK A01 T00031010  RH  091%=      5-min Rain = 0
KAM1 180636Z 24005KT 00/M01 A3004 RMK A01 T00031009  RH  091%=      5-min Rain = 0
KAM1 180637Z 24005KT 00/M01 A3004 RMK A01 T00031009  RH  091%=      5-min Rain = 0
KAM1 180638Z 24005KT 00/M01 A3004 RMK A01 T00031009  RH  092%=      5-min Rain = 0
KAM1 180639Z 24006KT 00/M01 A3004 RMK A01 T00031008  RH  092%=      5-min Rain = 0
KAM1 180640Z 24006KT 01/M01 A3004 RMK A01 T00051006  RH  093%=      5-min Rain = 0
KAM1 180641Z 24007KT 01/M01 A3004 RMK A01 T00071005  RH  092%=      5-min Rain = 0
KAM1 180642Z 24007KT 01/M01 A3004 RMK A01 T00081007  RH  090%=      5-min Rain = 0
KAM1 180643Z 24008KT 01/M01 A3004 RMK A01 T00091009  RH  088%=      5-min Rain = 0
KAM1 180644Z 24008KT 01/M01 A3004 RMK A01 T00091008  RH  088%=      5-min Rain = 0
KAM1 180645Z 23008KT 01/M01 A3004 RMK A01 T00101006  RH  089%=      5-min Rain = 0
KAM1 180646Z 23008KT 01/M00 A3004 RMK A01 T00121003  RH  090%=      5-min Rain = 0
KAM1 180647Z 23008KT 02/00 A3004 RMK A01 T00150000  RH  090%=      5-min Rain = 0
KAM1 180648Z 24008KT 02/00 A3004 RMK A01 T00180004  RH  090%=      5-min Rain = 0
KAM1 180649Z 23007KT 02/01 A3004 RMK A01 T00210005  RH  089%=      5-min Rain = 0
KAM1 180650Z 24008KT 02/01 A3004 RMK A01 T00240006  RH  088%=      5-min Rain = 0
KAM1 180651Z 24008KT 03/01 A3004 RMK A01 T00260006  RH  087%=      5-min Rain = 0
KAM1 180652Z 24008KT 03/01 A3004 RMK A01 T00270006  RH  086%=      5-min Rain = 0
KAM1 180653Z 24007KT 03/01 A3004 RMK A01 T00290006  RH  085%=      5-min Rain = 0
KAM1 180654Z 24008KT 03/01 A3004 RMK A01 T00300006  RH  084%=      5-min Rain = 0
KAM1 180655Z 24008KT 03/01 A3004 RMK A01 T00320006  RH  083%=      5-min Rain = 0
KAM1 180656Z 24008KT 03/01 A3004 RMK A01 T00320006  RH  083%=      5-min Rain = 0
KAM1 180657Z 24008KT 03/01 A3004 RMK A01 T00330005  RH  082%=      5-min Rain = 0
KAM1 180658Z 23007KT 03/01 A3004 RMK A01 T00330005  RH  082%=      5-min Rain = 0
KAM1 180659Z 24007KT 03/00 A3004 RMK A01 T00330004  RH  081%=      5-min Rain = 0
KAM1 180700Z 24007KT 03/00 A3004 RMK A01 T00330004  RH  081%=      5-min Rain = 0
KAM1 180701Z 24006KT 03/00 A3004 RMK A01 T00340004  RH  081%=      5-min Rain = 0
KAM1 180702Z 24006KT 03/00 A3004 RMK A01 T00340004  RH  081%=      5-min Rain = 0
KAM1 180703Z 24006KT 03/00 A3003 RMK A01 T00330003  RH  081%=      5-min Rain = 0
KAM1 180704Z 24006KT 03/00 A3003 RMK A01 T00310002  RH  081%=      5-min Rain = 0
KAM1 180705Z 24006KT 03/00 A3003 RMK A01 T00300001  RH  081%=      5-min Rain = 0
KAM1 180706Z 23006KT 03/00 A3003 RMK A01 T00290001  RH  082%=      5-min Rain = 0
KAM1 180707Z 24007KT 03/00 A3003 RMK A01 T002700-0  RH  082%=      5-min Rain = 0
KAM1 180708Z 23006KT 03/M00 A3003 RMK A01 T00261001  RH  082%=      5-min Rain = 0
KAM1 180709Z 23007KT 03/M00 A3003 RMK A01 T00251001  RH  083%=      5-min Rain = 0
KAM1 180710Z 23007KT 03/M00 A3003 RMK A01 T00251001  RH  083%=      5-min Rain = 0
KAM1 180711Z 23007KT 03/M00 A3003 RMK A01 T00251001  RH  083%=      5-min Rain = 0
KAM1 180712Z 23007KT 02/M00 A3003 RMK A01 T00241001  RH  083%=      5-min Rain = 0
KAM1 180713Z 24007KT 03/M00 A3003 RMK A01 T00251001  RH  083%=      5-min Rain = 0
KAM1 180714Z 24007KT 03/M00 A3003 RMK A01 T00251001  RH  083%=      5-min Rain = 0
KAM1 180715Z 24007KT 03/M00 A3003 RMK A01 T00251001  RH  083%=      5-min Rain = 0
KAM1 180716Z 23007KT 03/00 A3003 RMK A01 T002500-0  RH  083%=      5-min Rain = 0
KAM1 180717Z 24007KT 03/00 A3003 RMK A01 T002600-0  RH  083%=      5-min Rain = 0
KAM1 180718Z 24007KT 03/00 A3003 RMK A01 T00260000  RH  083%=      5-min Rain = 0
KAM1 180719Z 24007KT 03/00 A3003 RMK A01 T00260000  RH  083%=      5-min Rain = 0
KAM1 180720Z 23007KT 03/00 A3003 RMK A01 T002600-0  RH  083%=      5-min Rain = 0
KAM1 180721Z 24007KT 03/00 A3003 RMK A01 T00270001  RH  083%=      5-min Rain = 0
KAM1 180722Z 24006KT 03/00 A3003 RMK A01 T00280001  RH  082%=      5-min Rain = 0
KAM1 180723Z 23006KT 03/00 A3003 RMK A01 T00280000  RH  082%=      5-min Rain = 0
KAM1 180724Z 24006KT 03/00 A3003 RMK A01 T002800-0  RH  082%=      5-min Rain = 0
KAM1 180725Z 24006KT 03/M00 A3003 RMK A01 T00271001  RH  082%=      5-min Rain = 0
KAM1 180726Z 24005KT 03/M00 A3003 RMK A01 T00261001  RH  082%=      5-min Rain = 0
KAM1 180727Z 24006KT 03/M00 A3003 RMK A01 T00251002  RH  082%=      5-min Rain = 0
KAM1 180728Z 24005KT 03/M00 A3003 RMK A01 T00251001  RH  083%=      5-min Rain = 0
KAM1 180729Z 24006KT 03/M00 A3003 RMK A01 T00251001  RH  083%=      5-min Rain = 0
KAM1 180730Z 24005KT 03/M00 A3003 RMK A01 T00251002  RH  082%=      5-min Rain = 0
KAM1 180731Z 24006KT 02/M00 A3003 RMK A01 T00241003  RH  082%=      5-min Rain = 0
KAM1 180732Z 24005KT 02/M00 A3003 RMK A01 T00241003  RH  083%=      5-min Rain = 0
KAM1 180733Z 24005KT 02/M00 A3003 RMK A01 T00231003  RH  083%=      5-min Rain = 0
KAM1 180734Z 24005KT 02/M00 A3003 RMK A01 T00231003  RH  083%=      5-min Rain = 0
KAM1 180735Z 24006KT 02/M00 A3002 RMK A01 T00221004  RH  083%=      5-min Rain = 0
KAM1 180736Z 24006KT 02/M01 A3002 RMK A01 T00221005  RH  083%=      5-min Rain = 0
KAM1 180737Z 24006KT 02/M01 A3002 RMK A01 T00211005  RH  083%=      5-min Rain = 0
KAM1 180738Z 24006KT 02/M00 A3002 RMK A01 T00211004  RH  083%=      5-min Rain = 0
KAM1 180739Z 24006KT 02/M01 A3002 RMK A01 T00211005  RH  083%=      5-min Rain = 0
KAM1 180740Z 23006KT 02/M01 A3002 RMK A01 T00201006  RH  083%=      5-min Rain = 0
KAM1 180741Z 23006KT 02/M01 A3002 RMK A01 T00191006  RH  083%=      5-min Rain = 0
KAM1 180742Z 23007KT 02/M01 A3002 RMK A01 T00191006  RH  084%=      5-min Rain = 0
KAM1 180743Z 23007KT 02/M01 A3002 RMK A01 T00181006  RH  084%=      5-min Rain = 0
KAM1 180744Z 23008KT 02/M01 A3002 RMK A01 T00181006  RH  084%=      5-min Rain = 0
KAM1 180745Z 23008KT 02/M01 A3002 RMK A01 T00181005  RH  085%=      5-min Rain = 0
KAM1 180746Z 23008KT 02/M00 A3002 RMK A01 T00191004  RH  085%=      5-min Rain = 0
KAM1 180747Z 23008KT 02/M00 A3002 RMK A01 T00201003  RH  085%=      5-min Rain = 0
KAM1 180748Z 23008KT 02/M00 A3002 RMK A01 T00211002  RH  084%=      5-min Rain = 0
KAM1 180749Z 23008KT 02/M00 A3002 RMK A01 T00231002  RH  084%=      5-min Rain = 0
KAM1 180750Z 24007KT 02/M00 A3002 RMK A01 T00231002  RH  084%=      5-min Rain = 0
KAM1 180751Z 24007KT 02/M00 A3002 RMK A01 T00241002  RH  084%=      5-min Rain = 0
KAM1 180752Z 24006KT 02/M00 A3002 RMK A01 T00241002  RH  083%=      5-min Rain = 0
KAM1 180753Z 24007KT 02/M00 A3002 RMK A01 T00231002  RH  083%=      5-min Rain = 0
KAM1 180754Z 24007KT 02/M00 A3002 RMK A01 T00221003  RH  084%=      5-min Rain = 0
KAM1 180755Z 24006KT 02/M00 A3002 RMK A01 T00221003  RH  084%=      5-min Rain = 0
KAM1 180756Z 25006KT 02/M00 A3002 RMK A01 T00211004  RH  084%=      5-min Rain = 0
KAM1 180757Z 25006KT 02/M01 A3002 RMK A01 T00201005  RH  084%=      5-min Rain = 0
KAM1 180758Z 25006KT 02/M01 A3002 RMK A01 T00181007  RH  084%=      5-min Rain = 0
KAM1 180759Z 25007KT 02/M01 A3002 RMK A01 T00171008  RH  084%=      5-min Rain = 0
KAM1 180800Z 25008KT 02/M01 A3002 RMK A01 T00161008  RH  084%=      5-min Rain = 0
KAM1 180801Z 25008KT 02/M01 A3002 RMK A01 T00151008  RH  085%=      5-min Rain = 0
KAM1 180802Z 25007KT 02/M01 A3002 RMK A01 T00151006  RH  086%=      5-min Rain = 0
KAM1 180803Z 25008KT 02/M00 A3002 RMK A01 T00161004  RH  087%=      5-min Rain = 0
KAM1 180804Z 25007KT 02/M00 A3002 RMK A01 T00171003  RH  087%=      5-min Rain = 0
KAM1 180805Z 25007KT 02/M00 A3002 RMK A01 T00171003  RH  086%=      5-min Rain = 0
KAM1 180806Z 25007KT 02/M00 A3002 RMK A01 T00171003  RH  086%=      5-min Rain = 0
KAM1 180807Z 25007KT 02/M00 A3002 RMK A01 T00171003  RH  086%=      5-min Rain = 0
KAM1 180808Z 25007KT 02/M00 A3002 RMK A01 T00171004  RH  086%=      5-min Rain = 0
KAM1 180809Z 25007KT 02/M00 A3002 RMK A01 T00161004  RH  086%=      5-min Rain = 0
KAM1 180810Z 26007KT 02/M01 A3002 RMK A01 T00151005  RH  086%=      5-min Rain = 0
KAM1 180811Z 25008KT 02/M01 A3002 RMK A01 T00151006  RH  086%=      5-min Rain = 0
KAM1 180812Z 25008KT 01/M01 A3002 RMK A01 T00141006  RH  086%=      5-min Rain = 0
KAM1 180813Z 25008KT 01/M01 A3002 RMK A01 T00131007  RH  087%=      5-min Rain = 0
KAM1 180814Z 25008KT 01/M01 A3001 RMK A01 T00131006  RH  087%=      5-min Rain = 0
KAM1 180815Z 25009KT 01/M01 A3001 RMK A01 T00131005  RH  088%=      5-min Rain = 0
KAM1 180816Z 25009KT 01/M01 A3001 RMK A01 T00131005  RH  088%=      5-min Rain = 0
KAM1 180817Z 25009KT 01/M00 A3001 RMK A01 T00141004  RH  088%=      5-min Rain = 0
KAM1 180818Z 25008KT 02/M00 A3001 RMK A01 T00151003  RH  088%=      5-min Rain = 0
KAM1 180819Z 25009KT 02/M00 A3001 RMK A01 T00161003  RH  087%=      5-min Rain = 0
KAM1 180820Z 25009KT 02/M00 A3001 RMK A01 T00171002  RH  087%=      5-min Rain = 0
KAM1 180821Z 25009KT 02/M00 A3001 RMK A01 T00171003  RH  087%=      5-min Rain = 0
KAM1 180822Z 25008KT 02/M00 A3001 RMK A01 T00171003  RH  086%=      5-min Rain = 0
KAM1 180823Z 25009KT 02/M00 A3001 RMK A01 T00171003  RH  086%=      5-min Rain = 0
KAM1 180824Z 24009KT 02/M00 A3001 RMK A01 T00181002  RH  087%=      5-min Rain = 0
KAM1 180825Z 25010KT 02/M00 A3001 RMK A01 T00191001  RH  087%=      5-min Rain = 0
KAM1 180826Z 24009KT 02/M00 A30 RMK A01 T00201001  RH  086%=      5-min Rain = 0
KAM1 180827Z 25009KT 02/M00 A30 RMK A01 T00211001  RH  086%=      5-min Rain = 0
KAM1 180828Z 24009KT 02/00 A30 RMK A01 T002200-0  RH  085%=      5-min Rain = 0
KAM1 180829Z 25010KT 02/M00 A30 RMK A01 T00221001  RH  085%=      5-min Rain = 0
KAM1 180830Z 25009KT 02/M00 A3001 RMK A01 T00221001  RH  085%=      5-min Rain = 0
KAM1 180831Z 25009KT 02/M00 A3001 RMK A01 T00221001  RH  085%=      5-min Rain = 0
KAM1 180832Z 25009KT 02/M00 A30 RMK A01 T00221001  RH  085%=      5-min Rain = 0
KAM1 180833Z 25008KT 02/00 A30 RMK A01 T002300-0  RH  085%=      5-min Rain = 0
KAM1 180834Z 25009KT 02/M00 A30 RMK A01 T00231001  RH  084%=      5-min Rain = 0
KAM1 180835Z 25008KT 02/00 A30 RMK A01 T002400-0  RH  084%=      5-min Rain = 0
KAM1 180836Z 25009KT 02/M00 A30 RMK A01 T00241001  RH  084%=      5-min Rain = 0
KAM1 180837Z 25008KT 02/M00 A30 RMK A01 T00241001  RH  084%=      5-min Rain = 0
KAM1 180838Z 25008KT 02/M00 A30 RMK A01 T00241001  RH  084%=      5-min Rain = 0
KAM1 180839Z 25009KT 02/00 A30 RMK A01 T002400-0  RH  084%=      5-min Rain = 0
KAM1 180840Z 25010KT 02/00 A30 RMK A01 T002400-0  RH  084%=      5-min Rain = 0
KAM1 180841Z 25010KT 03/00 A30 RMK A01 T00250000  RH  084%=      5-min Rain = 0
KAM1 180842Z 25010KT 03/00 A30 RMK A01 T002500-0  RH  083%=      5-min Rain = 0
KAM1 180843Z 25010KT 03/M00 A30 RMK A01 T00251001  RH  083%=      5-min Rain = 0
KAM1 180844Z 25010KT 03/M00 A30 RMK A01 T00251001  RH  083%=      5-min Rain = 0
KAM1 180845Z 25010KT 03/M00 A30 RMK A01 T00251001  RH  083%=      5-min Rain = 0
KAM1 180846Z 25010KT 03/M00 A30 RMK A01 T00251001  RH  083%=      5-min Rain = 0
KAM1 180847Z 25010KT 02/M00 A30 RMK A01 T00241001  RH  083%=      5-min Rain = 0
KAM1 180848Z 25010KT 03/M00 A30 RMK A01 T00251001  RH  083%=      5-min Rain = 0
KAM1 180849Z 26009KT 02/M00 A30 RMK A01 T00241001  RH  083%=      5-min Rain = 0
KAM1 180850Z 26010KT 02/M00 A30 RMK A01 T00241001  RH  083%=      5-min Rain = 0
KAM1 180851Z 26010KT 02/M00 A30 RMK A01 T00241001  RH  083%=      5-min Rain = 0
KAM1 180852Z 25010KT 03/M00 A30 RMK A01 T00251001  RH  083%=      5-min Rain = 0
KAM1 180853Z 26010KT 03/M00 A30 RMK A01 T00251001  RH  083%=      5-min Rain = 0
KAM1 180854Z 25010KT 03/M00 A30 RMK A01 T00261001  RH  083%=      5-min Rain = 0
KAM1 180855Z 25010KT 03/M00 A30 RMK A01 T00261001  RH  082%=      5-min Rain = 0
KAM1 180856Z 25010KT 03/M00 A30 RMK A01 T00261001  RH  082%=      5-min Rain = 0
KAM1 180857Z 25010KT 03/M00 A30 RMK A01 T00261001  RH  082%=      5-min Rain = 0
KAM1 180858Z 25009KT 03/M00 A30 RMK A01 T00261001  RH  082%=      5-min Rain = 0
KAM1 180859Z 25009KT 03/M00 A30 RMK A01 T00251001  RH  082%=      5-min Rain = 0
KAM1 180900Z 25009KT 03/M00 A30 RMK A01 T00251002  RH  083%=      5-min Rain = 0
KAM1 180901Z 25009KT 03/M00 A30 RMK A01 T00251002  RH  083%=      5-min Rain = 0
KAM1 180902Z 25008KT 02/M00 A30 RMK A01 T00241002  RH  083%=      5-min Rain = 0
KAM1 180903Z 25008KT 02/M00 A30 RMK A01 T00241003  RH  083%=      5-min Rain = 0
KAM1 180904Z 25009KT 02/M00 A30 RMK A01 T00241003  RH  083%=      5-min Rain = 0
KAM1 180905Z 25008KT 02/M00 A2999 RMK A01 T00231003  RH  083%=      5-min Rain = 0
KAM1 180906Z 25008KT 02/M00 A2999 RMK A01 T00231003  RH  083%=      5-min Rain = 0
KAM1 180907Z 25008KT 02/M00 A2999 RMK A01 T00221003  RH  083%=      5-min Rain = 0
KAM1 180908Z 25008KT 02/M00 A2999 RMK A01 T00221003  RH  083%=      5-min Rain = 0
KAM1 180909Z 24009KT 02/M00 A2999 RMK A01 T00221003  RH  083%=      5-min Rain = 0
KAM1 180910Z 24009KT 02/M00 A2999 RMK A01 T00231002  RH  083%=      5-min Rain = 0
KAM1 180911Z 25009KT 02/M00 A2999 RMK A01 T00241002  RH  083%=      5-min Rain = 0
KAM1 180912Z 24009KT 02/M00 A2999 RMK A01 T00241002  RH  083%=      5-min Rain = 0
KAM1 180913Z 24009KT 02/M00 A2998 RMK A01 T00241002  RH  083%=      5-min Rain = 0
KAM1 180914Z 24008KT 03/M00 A2998 RMK A01 T00251002  RH  082%=      5-min Rain = 0
KAM1 180915Z 24008KT 03/M00 A2998 RMK A01 T00251002  RH  082%=      5-min Rain = 0
KAM1 180916Z 24008KT 03/M00 A2998 RMK A01 T00251003  RH  082%=      5-min Rain = 0
KAM1 180917Z 24008KT 02/M00 A2998 RMK A01 T00241003  RH  082%=      5-min Rain = 0
KAM1 180918Z 24008KT 02/M00 A2998 RMK A01 T00231004  RH  082%=      5-min Rain = 0
KAM1 180919Z 24008KT 02/M00 A2998 RMK A01 T00231004  RH  083%=      5-min Rain = 0
KAM1 180920Z 24008KT 02/M00 A2998 RMK A01 T00221004  RH  083%=      5-min Rain = 0
KAM1 180921Z 24008KT 02/M01 A2998 RMK A01 T00211005  RH  083%=      5-min Rain = 0
KAM1 180922Z 24008KT 02/M01 A2998 RMK A01 T00201005  RH  083%=      5-min Rain = 0
KAM1 180923Z 24008KT 02/M01 A2998 RMK A01 T00201005  RH  084%=      5-min Rain = 0
KAM1 180924Z 24008KT 02/M01 A2998 RMK A01 T00191005  RH  084%=      5-min Rain = 0
KAM1 180925Z 24009KT 02/M01 A2998 RMK A01 T00181005  RH  084%=      5-min Rain = 0
KAM1 180926Z 24009KT 02/M01 A2998 RMK A01 T00181005  RH  085%=      5-min Rain = 0
KAM1 180927Z 24009KT 02/M00 A2998 RMK A01 T00181004  RH  085%=      5-min Rain = 0
KAM1 180928Z 24009KT 02/M00 A2998 RMK A01 T00181004  RH  085%=      5-min Rain = 0
KAM1 180929Z 23009KT 02/M00 A2998 RMK A01 T00191003  RH  085%=      5-min Rain = 0
KAM1 180930Z 23009KT 02/M00 A2998 RMK A01 T00191003  RH  085%=      5-min Rain = 0
KAM1 180931Z 23009KT 02/M00 A2998 RMK A01 T00201002  RH  086%=      5-min Rain = 0
KAM1 180932Z 23009KT 02/M00 A2998 RMK A01 T00201001  RH  085%=      5-min Rain = 0
KAM1 180933Z 23009KT 02/M00 A2997 RMK A01 T00211001  RH  085%=      5-min Rain = 0
KAM1 180934Z 23009KT 02/00 A2997 RMK A01 T002300-0  RH  085%=      5-min Rain = 0
KAM1 180935Z 24010KT 02/00 A2997 RMK A01 T002300-0  RH  084%=      5-min Rain = 0
KAM1 180936Z 24010KT 02/00 A2997 RMK A01 T002400-0  RH  084%=      5-min Rain = 0
KAM1 180937Z 23010KT 03/00 A2997 RMK A01 T002500-0  RH  084%=      5-min Rain = 0
KAM1 180938Z 23010KT 03/00 A2997 RMK A01 T002500-0  RH  083%=      5-min Rain = 0
KAM1 180939Z 24010KT 03/M00 A2997 RMK A01 T00251001  RH  083%=      5-min Rain = 0
KAM1 180940Z 24010KT 03/M00 A2997 RMK A01 T00251001  RH  083%=      5-min Rain = 0
KAM1 180941Z 24010KT 03/M00 A2997 RMK A01 T00261001  RH  083%=      5-min Rain = 0
KAM1 180942Z 24011KT 03/00 A2997 RMK A01 T002600-0  RH  083%=      5-min Rain = 0
KAM1 180943Z 24011KT 03/00 A2997 RMK A01 T00280001  RH  083%=      5-min Rain = 0
KAM1 180944Z 24010KT 03/00 A2997 RMK A01 T00300002  RH  082%=      5-min Rain = 0
KAM1 180945Z 24010KT 03/00 A2997 RMK A01 T00310002  RH  081%=      5-min Rain = 0
KAM1 180946Z 24010KT 03/00 A2997 RMK A01 T00320003  RH  081%=      5-min Rain = 0
KAM1 180947Z 25010KT 03/00 A2997 RMK A01 T00320003  RH  081%=      5-min Rain = 0
KAM1 180948Z 25010KT 03/00 A2997 RMK A01 T00330003  RH  081%=      5-min Rain = 0
KAM1 180949Z 25010KT 03/00 A2997 RMK A01 T00340003  RH  080%=      5-min Rain = 0
KAM1 180950Z 25009KT 03/00 A2997 RMK A01 T00330003  RH  080%=      5-min Rain = 0
KAM1 180951Z 25009KT 03/00 A2998 RMK A01 T00330002  RH  080%=      5-min Rain = 0
KAM1 180952Z 25009KT 03/00 A2998 RMK A01 T00330003  RH  080%=      5-min Rain = 0
KAM1 180953Z 25009KT 03/00 A2998 RMK A01 T00320002  RH  081%=      5-min Rain = 0
KAM1 180954Z 25010KT 03/00 A2998 RMK A01 T00330003  RH  081%=      5-min Rain = 0
KAM1 180955Z 25010KT 03/00 A2998 RMK A01 T00330004  RH  081%=      5-min Rain = 0
KAM1 180956Z 25010KT 04/01 A2998 RMK A01 T00350005  RH  081%=      5-min Rain = 0
KAM1 180957Z 25010KT 04/01 A2998 RMK A01 T00370006  RH  080%=      5-min Rain = 0
KAM1 180958Z 25010KT 04/01 A2998 RMK A01 T00400008  RH  079%=      5-min Rain = 0
KAM1 180959Z 25010KT 04/01 A2998 RMK A01 T00420008  RH  078%=      5-min Rain = 0
KAM1 181000Z 25009KT 04/01 A2998 RMK A01 T00440008  RH  078%=      5-min Rain = 0
KAM1 181001Z 25009KT 05/01 A2998 RMK A01 T00450008  RH  077%=      5-min Rain = 0
KAM1 181002Z 25009KT 05/01 A2998 RMK A01 T00450008  RH  077%=      5-min Rain = 0
KAM1 181003Z 25009KT 04/01 A2998 RMK A01 T00440007  RH  077%=      5-min Rain = 0
KAM1 181004Z 26009KT 04/01 A2998 RMK A01 T00430006  RH  077%=      5-min Rain = 0
KAM1 181005Z 26009KT 04/01 A2998 RMK A01 T00420005  RH  077%=      5-min Rain = 0
KAM1 181006Z 26009KT 04/00 A2998 RMK A01 T00400004  RH  078%=      5-min Rain = 0
KAM1 181007Z 26010KT 04/00 A2998 RMK A01 T00380004  RH  079%=      5-min Rain = 0
KAM1 181008Z 26010KT 04/00 A2998 RMK A01 T00370004  RH  079%=      5-min Rain = 0
KAM1 181009Z 26009KT 04/00 A2998 RMK A01 T00370004  RH  079%=      5-min Rain = 0
KAM1 181010Z 26010KT 04/01 A2998 RMK A01 T00370005  RH  079%=      5-min Rain = 0
KAM1 181011Z 25009KT 04/00 A2998 RMK A01 T00370004  RH  079%=      5-min Rain = 0
KAM1 181012Z 26009KT 04/00 A2998 RMK A01 T00370004  RH  079%=      5-min Rain = 0
KAM1 181013Z 26008KT 04/00 A2998 RMK A01 T00370004  RH  079%=      5-min Rain = 0
KAM1 181014Z 26009KT 04/00 A2998 RMK A01 T00360003  RH  079%=      5-min Rain = 0
KAM1 181015Z 25009KT 04/00 A2998 RMK A01 T00360003  RH  079%=      5-min Rain = 0
KAM1 181016Z 25010KT 04/00 A2998 RMK A01 T00350003  RH  079%=      5-min Rain = 0
KAM1 181017Z 25010KT 04/00 A2998 RMK A01 T00350002  RH  079%=      5-min Rain = 0
KAM1 181018Z 25009KT 03/00 A2998 RMK A01 T00340002  RH  079%=      5-min Rain = 0
KAM1 181019Z 25009KT 03/00 A2998 RMK A01 T00340002  RH  080%=      5-min Rain = 0
KAM1 181020Z 25010KT 03/00 A2998 RMK A01 T00330001  RH  080%=      5-min Rain = 0
KAM1 181021Z 25009KT 03/00 A2998 RMK A01 T00330001  RH  080%=      5-min Rain = 0
KAM1 181022Z 25009KT 03/00 A2998 RMK A01 T00330001  RH  080%=      5-min Rain = 0
KAM1 181023Z 25009KT 03/00 A2998 RMK A01 T00320001  RH  080%=      5-min Rain = 0
KAM1 181024Z 25009KT 03/00 A2998 RMK A01 T00310001  RH  080%=      5-min Rain = 0
KAM1 181025Z 25009KT 03/00 A2998 RMK A01 T003100-0  RH  080%=      5-min Rain = 0
KAM1 181026Z 25009KT 03/M00 A2998 RMK A01 T00291001  RH  081%=      5-min Rain = 0
KAM1 181027Z 25009KT 03/M00 A2998 RMK A01 T00281001  RH  081%=      5-min Rain = 0
KAM1 181028Z 25009KT 03/M00 A2998 RMK A01 T00281001  RH  081%=      5-min Rain = 0
KAM1 181029Z 25010KT 03/M00 A2998 RMK A01 T00271001  RH  082%=      5-min Rain = 0
KAM1 181030Z 25009KT 03/M00 A2998 RMK A01 T00271001  RH  082%=      5-min Rain = 0
KAM1 181031Z 25009KT 03/M00 A2998 RMK A01 T00271001  RH  082%=      5-min Rain = 0
KAM1 181032Z 25009KT 03/M00 A2998 RMK A01 T00261002  RH  082%=      5-min Rain = 0
KAM1 181033Z 25009KT 03/M00 A2998 RMK A01 T00261002  RH  082%=      5-min Rain = 0
KAM1 181034Z 25009KT 03/M00 A2998 RMK A01 T00251002  RH  082%=      5-min Rain = 0
KAM1 181035Z 25010KT 03/M00 A2998 RMK A01 T00251002  RH  082%=      5-min Rain = 0
KAM1 181036Z 25009KT 03/M00 A2998 RMK A01 T00251002  RH  082%=      5-min Rain = 0
KAM1 181037Z 25009KT 03/M00 A2998 RMK A01 T00251002  RH  082%=      5-min Rain = 0
KAM1 181038Z 25009KT 03/M00 A2998 RMK A01 T00251002  RH  082%=      5-min Rain = 0
KAM1 181039Z 25009KT 03/M00 A2998 RMK A01 T00251002  RH  082%=      5-min Rain = 0
KAM1 181040Z 25009KT 03/M00 A2998 RMK A01 T00251003  RH  082%=      5-min Rain = 0
KAM1 181041Z 25009KT 02/M00 A2998 RMK A01 T00241003  RH  082%=      5-min Rain = 0
KAM1 181042Z 25008KT 02/M00 A2998 RMK A01 T00241002  RH  083%=      5-min Rain = 0
KAM1 181043Z 25008KT 02/M00 A2998 RMK A01 T00241002  RH  083%=      5-min Rain = 0
KAM1 181044Z 25008KT 03/M00 A2998 RMK A01 T00251002  RH  083%=      5-min Rain = 0
KAM1 181045Z 25008KT 03/M00 A2998 RMK A01 T00251002  RH  082%=      5-min Rain = 0
KAM1 181046Z 25008KT 03/M00 A2998 RMK A01 T00251002  RH  082%=      5-min Rain = 0
KAM1 181047Z 25008KT 03/M00 A2997 RMK A01 T00251002  RH  082%=      5-min Rain = 0
KAM1 181048Z 25009KT 03/M00 A2997 RMK A01 T00251003  RH  082%=      5-min Rain = 0
KAM1 181049Z 25008KT 03/M00 A2997 RMK A01 T00251003  RH  082%=      5-min Rain = 0
KAM1 181050Z 25008KT 03/M00 A2997 RMK A01 T00251003  RH  082%=      5-min Rain = 0
KAM1 181051Z 25008KT 03/M00 A2997 RMK A01 T00251003  RH  082%=      5-min Rain = 0
KAM1 181052Z 25008KT 03/M00 A2997 RMK A01 T00251003  RH  082%=      5-min Rain = 0
KAM1 181053Z 25008KT 03/M00 A2997 RMK A01 T00251003  RH  082%=      5-min Rain = 0
KAM1 181054Z 25008KT 03/M00 A2997 RMK A01 T00251003  RH  082%=      5-min Rain = 0
KAM1 181055Z 25008KT 03/M00 A2997 RMK A01 T00251003  RH  082%=      5-min Rain = 0
KAM1 181056Z 25008KT 03/M00 A2997 RMK A01 T00251003  RH  082%=      5-min Rain = 0
KAM1 181057Z 25008KT 02/M00 A2997 RMK A01 T00241003  RH  082%=      5-min Rain = 0
KAM1 181058Z 25009KT 02/M00 A2997 RMK A01 T00241003  RH  082%=      5-min Rain = 0
KAM1 181059Z 25009KT 02/M00 A2997 RMK A01 T00241003  RH  083%=      5-min Rain = 0
KAM1 181100Z 25009KT 02/M00 A2997 RMK A01 T00241003  RH  082%=      5-min Rain = 0
KAM1 181101Z 25008KT 02/M00 A2997 RMK A01 T00241003  RH  082%=      5-min Rain = 0
KAM1 181102Z 25008KT 02/M00 A2997 RMK A01 T00241003  RH  082%=      5-min Rain = 0
KAM1 181103Z 25008KT 02/M00 A2997 RMK A01 T00241003  RH  082%=      5-min Rain = 0
KAM1 181104Z 25008KT 02/M00 A2997 RMK A01 T00231004  RH  082%=      5-min Rain = 0
KAM1 181105Z 25008KT 02/M01 A2997 RMK A01 T00221005  RH  082%=      5-min Rain = 0
KAM1 181106Z 25008KT 02/M01 A2997 RMK A01 T00221005  RH  083%=      5-min Rain = 0
KAM1 181107Z 25008KT 02/M01 A2997 RMK A01 T00201005  RH  083%=      5-min Rain = 0
KAM1 181108Z 25008KT 02/M01 A2997 RMK A01 T00191006  RH  083%=      5-min Rain = 0
KAM1 181109Z 25008KT 02/M01 A2997 RMK A01 T00191006  RH  084%=      5-min Rain = 0
KAM1 181110Z 25007KT 02/M01 A2997 RMK A01 T00181006  RH  084%=      5-min Rain = 0
KAM1 181111Z 25007KT 02/M01 A2997 RMK A01 T00181006  RH  084%=      5-min Rain = 0
KAM1 181112Z 25007KT 02/M01 A2997 RMK A01 T00171006  RH  085%=      5-min Rain = 0
KAM1 181113Z 25006KT 02/M01 A2997 RMK A01 T00161006  RH  085%=      5-min Rain = 0
KAM1 181114Z 26006KT 02/M01 A2997 RMK A01 T00161007  RH  085%=      5-min Rain = 0
KAM1 181115Z 26005KT 01/M01 A2997 RMK A01 T00141008  RH  085%=      5-min Rain = 0
KAM1 181116Z 26005KT 01/M01 A2997 RMK A01 T00131009  RH  085%=      5-min Rain = 0
KAM1 181117Z 26006KT 01/M01 A2997 RMK A01 T00111011  RH  085%=      5-min Rain = 0
KAM1 181118Z 26006KT 01/M01 A2997 RMK A01 T00101011  RH  086%=      5-min Rain = 0
KAM1 181119Z 26006KT 01/M01 A2997 RMK A01 T00091011  RH  087%=      5-min Rain = 0
KAM1 181120Z 26006KT 01/M01 A2997 RMK A01 T00081011  RH  087%=      5-min Rain = 0
KAM1 181121Z 25006KT 01/M01 A2997 RMK A01 T00061011  RH  088%=      5-min Rain = 0
KAM1 181122Z 25006KT 01/M01 A2997 RMK A01 T00061012  RH  088%=      5-min Rain = 0
KAM1 181123Z 25007KT 01/M01 A2997 RMK A01 T00051011  RH  089%=      5-min Rain = 0
KAM1 181124Z 25007KT 00/M01 A2997 RMK A01 T00041011  RH  089%=      5-min Rain = 0
KAM1 181125Z 24007KT 00/M01 A2997 RMK A01 T00041011  RH  090%=      5-min Rain = 0
KAM1 181126Z 24007KT 00/M01 A2997 RMK A01 T00031012  RH  090%=      5-min Rain = 0
KAM1 181127Z 24007KT 00/M01 A2997 RMK A01 T00021011  RH  091%=      5-min Rain = 0
KAM1 181128Z 24008KT 00/M01 A2997 RMK A01 T00021011  RH  091%=      5-min Rain = 0
KAM1 181129Z 24008KT 00/M01 A2997 RMK A01 T00021011  RH  092%=      5-min Rain = 0
KAM1 181130Z 24008KT 00/M01 A2997 RMK A01 T00021009  RH  092%=      5-min Rain = 0
KAM1 181131Z 24008KT 00/M01 A2997 RMK A01 T00031007  RH  092%=      5-min Rain = 0
KAM1 181132Z 24007KT 01/M01 A2996 RMK A01 T00051006  RH  093%=      5-min Rain = 0
KAM1 181133Z 24007KT 01/M01 A2996 RMK A01 T00061005  RH  093%=      5-min Rain = 0
KAM1 181134Z 24007KT 01/M00 A2996 RMK A01 T00071004  RH  093%=      5-min Rain = 0
KAM1 181135Z 24007KT 01/M00 A2996 RMK A01 T00081003  RH  092%=      5-min Rain = 0
KAM1 181136Z 24007KT 01/M00 A2996 RMK A01 T00091003  RH  092%=      5-min Rain = 0
KAM1 181137Z 24007KT 01/M00 A2996 RMK A01 T00091003  RH  091%=      5-min Rain = 0
KAM1 181138Z 24006KT 01/M00 A2996 RMK A01 T00101003  RH  091%=      5-min Rain = 0
KAM1 181139Z 24007KT 01/M00 A2996 RMK A01 T00101003  RH  091%=      5-min Rain = 0
KAM1 181140Z 24007KT 01/M00 A2996 RMK A01 T00111004  RH  090%=      5-min Rain = 0
KAM1 181141Z 25007KT 01/M00 A2996 RMK A01 T00111004  RH  090%=      5-min Rain = 0
KAM1 181142Z 24007KT 01/M00 A2996 RMK A01 T00111004  RH  089%=      5-min Rain = 0
KAM1 181143Z 24007KT 01/M01 A2996 RMK A01 T00111005  RH  089%=      5-min Rain = 0
KAM1 181144Z 25007KT 01/M00 A2996 RMK A01 T00111004  RH  089%=      5-min Rain = 0
KAM1 181145Z 25007KT 01/M01 A2996 RMK A01 T00111005  RH  089%=      5-min Rain = 0
KAM1 181146Z 25006KT 01/M01 A2996 RMK A01 T00111005  RH  089%=      5-min Rain = 0
KAM1 181147Z 26006KT 01/M01 A2996 RMK A01 T00111005  RH  089%=      5-min Rain = 0
KAM1 181148Z 26005KT 01/M01 A2996 RMK A01 T00101007  RH  088%=      5-min Rain = 0
KAM1 181149Z 26005KT 01/M01 A2996 RMK A01 T00081011  RH  087%=      5-min Rain = 0
KAM1 181150Z 27004KT 01/M02 A2996 RMK A01 T00051016  RH  086%=      5-min Rain = 0
KAM1 181151Z 27005KT 00/M02 A2996 RMK A01 T00021019  RH  086%=      5-min Rain = 0
KAM1 181152Z 27005KT M00/M02 A2996 RMK A01 T10011018  RH  088%=      5-min Rain = 0
KAM1 181153Z 26006KT M00/M02 A2996 RMK A01 T10011016  RH  090%=      5-min Rain = 0
KAM1 181154Z 26006KT M00/M01 A2996 RMK A01 T10021014  RH  091%=      5-min Rain = 0
KAM1 181155Z 25007KT M00/M01 A2996 RMK A01 T10021013  RH  092%=      5-min Rain = 0
KAM1 181156Z 25007KT M00/M01 A2996 RMK A01 T10021012  RH  093%=      5-min Rain = 0
KAM1 181157Z 25008KT M00/M01 A2995 RMK A01 T10021012  RH  093%=      5-min Rain = 0
KAM1 181158Z 24008KT M00/M01 A2995 RMK A01 T10031012  RH  094%=      5-min Rain = 0
KAM1 181159Z 24008KT M00/M01 A2995 RMK A01 T10041013  RH  093%=      5-min Rain = 0
KAM1 181200Z 24008KT M01/M01 A2995 RMK A01 T10051014  RH  094%=      5-min Rain = 0
KAM1 181201Z 24009KT M01/M01 A2995 RMK A01 T10051013  RH  095%=      5-min Rain = 0
KAM1 181202Z 24009KT M01/M01 A2995 RMK A01 T10051010  RH  096%=      5-min Rain = 0
KAM1 181203Z 24009KT M00/M01 A2995 RMK A01 T10031008  RH  097%=      5-min Rain = 0
KAM1 181204Z 25009KT M00/M01 A2995 RMK A01 T10021005  RH  098%=      5-min Rain = 0
KAM1 181205Z 25009KT 00/00 A2995 RMK A01 T00-000-4  RH  098%=      5-min Rain = 0
KAM1 181206Z 25009KT 00/M00 A2995 RMK A01 T00011002  RH  097%=      5-min Rain = 0
KAM1 181207Z 24009KT 00/M00 A2995 RMK A01 T00031001  RH  097%=      5-min Rain = 0
KAM1 181208Z 25009KT 01/00 A2995 RMK A01 T000500-0  RH  096%=      5-min Rain = 0
KAM1 181209Z 25008KT 01/M00 A2995 RMK A01 T00061001  RH  096%=      5-min Rain = 0
KAM1 181210Z 24008KT 01/M00 A2995 RMK A01 T00061001  RH  095%=      5-min Rain = 0
KAM1 181211Z 25009KT 01/00 A2995 RMK A01 T00070000  RH  095%=      5-min Rain = 0
KAM1 181212Z 25009KT 01/00 A2995 RMK A01 T00090001  RH  095%=      5-min Rain = 0
KAM1 181213Z 25009KT 01/00 A2995 RMK A01 T00100002  RH  094%=      5-min Rain = 0
KAM1 181214Z 25008KT 01/00 A2995 RMK A01 T00110001  RH  093%=      5-min Rain = 0
KAM1 181215Z 25008KT 01/00 A2995 RMK A01 T00120001  RH  093%=      5-min Rain = 0
KAM1 181216Z 25008KT 01/00 A2995 RMK A01 T00120001  RH  092%=      5-min Rain = 0
KAM1 181217Z 25009KT 01/00 A2995 RMK A01 T00120000  RH  092%=      5-min Rain = 0
KAM1 181218Z 25009KT 01/00 A2995 RMK A01 T00120000  RH  092%=      5-min Rain = 0
KAM1 181219Z 25009KT 01/00 A2995 RMK A01 T001200-0  RH  092%=      5-min Rain = 0
KAM1 181220Z 25009KT 01/M00 A2995 RMK A01 T00111001  RH  092%=      5-min Rain = 0
KAM1 181221Z 25009KT 01/M00 A2995 RMK A01 T00111001  RH  092%=      5-min Rain = 0
KAM1 181222Z 25009KT 01/M00 A2995 RMK A01 T00111001  RH  092%=      5-min Rain = 0
KAM1 181223Z 25009KT 01/M00 A2995 RMK A01 T00101002  RH  092%=      5-min Rain = 0
KAM1 181224Z 25008KT 01/M00 A2996 RMK A01 T00101002  RH  092%=      5-min Rain = 0
KAM1 181225Z 25008KT 01/M00 A2996 RMK A01 T00091003  RH  092%=      5-min Rain = 0
KAM1 181226Z 26007KT 01/M00 A2996 RMK A01 T00091002  RH  092%=      5-min Rain = 0
KAM1 181227Z 27006KT 01/M00 A2996 RMK A01 T00091002  RH  092%=      5-min Rain = 0
KAM1 181228Z 27007KT 01/M00 A2996 RMK A01 T00091002  RH  093%=      5-min Rain = 0
KAM1 181229Z 27007KT 01/M00 A2996 RMK A01 T00091002  RH  093%=      5-min Rain = 0
KAM1 181230Z 26008KT 01/M00 A2996 RMK A01 T00091002  RH  093%=      5-min Rain = 0
KAM1 181231Z 26008KT 01/M00 A2996 RMK A01 T00091002  RH  092%=      5-min Rain = 0
KAM1 181232Z 26008KT 01/M00 A2996 RMK A01 T00081003  RH  092%=      5-min Rain = 0
KAM1 181233Z 26007KT 01/M00 A2996 RMK A01 T00071004  RH  092%=      5-min Rain = 0
KAM1 181234Z 27006KT 01/M01 A2996 RMK A01 T00061005  RH  092%=      5-min Rain = 0
KAM1 181235Z 27006KT 01/M01 A2996 RMK A01 T00051005  RH  093%=      5-min Rain = 0
KAM1 181236Z 28007KT 01/M01 A2996 RMK A01 T00051006  RH  093%=      5-min Rain = 0
KAM1 181237Z 28008KT 00/M01 A2996 RMK A01 T00041006  RH  093%=      5-min Rain = 0
KAM1 181238Z 27007KT 00/M01 A2996 RMK A01 T00041005  RH  094%=      5-min Rain = 0
KAM1 181239Z 27008KT 00/M00 A2996 RMK A01 T00041004  RH  094%=      5-min Rain = 0
KAM1 181240Z 26009KT 00/M00 A2996 RMK A01 T00041004  RH  095%=      5-min Rain = 0
KAM1 181241Z 26009KT 00/M00 A2996 RMK A01 T00041004  RH  095%=      5-min Rain = 0
KAM1 181242Z 26008KT 00/M00 A2996 RMK A01 T00041003  RH  095%=      5-min Rain = 0
KAM1 181243Z 26007KT 01/M00 A2997 RMK A01 T00051003  RH  094%=      5-min Rain = 0
KAM1 181244Z 26006KT 01/M00 A2997 RMK A01 T00051003  RH  094%=      5-min Rain = 0
KAM1 181245Z 27005KT 01/M00 A2997 RMK A01 T00051003  RH  094%=      5-min Rain = 0
KAM1 181246Z 27005KT 01/M00 A2997 RMK A01 T00061003  RH  094%=      5-min Rain = 0
KAM1 181247Z 27004KT 01/M00 A2997 RMK A01 T00061003  RH  094%=      5-min Rain = 0
KAM1 181248Z 28004KT 01/M00 A2997 RMK A01 T00061002  RH  094%=      5-min Rain = 0
KAM1 181249Z 29003KT 01/M00 A2997 RMK A01 T00061002  RH  094%=      5-min Rain = 0
KAM1 181250Z 29002KT 01/M00 A2997 RMK A01 T00061002  RH  094%=      5-min Rain = 0
KAM1 181251Z 28003KT 01/M00 A2997 RMK A01 T00061003  RH  094%=      5-min Rain = 0
KAM1 181252Z 28002KT 01/M00 A2997 RMK A01 T00071002  RH  094%=      5-min Rain = 0
KAM1 181253Z 27003KT 01/M00 A2997 RMK A01 T00061002  RH  094%=      5-min Rain = 0
KAM1 181254Z 27003KT 01/M00 A2997 RMK A01 T00061002  RH  094%=      5-min Rain = 0
KAM1 181255Z 27003KT 01/M00 A2997 RMK A01 T00071002  RH  094%=      5-min Rain = 0
KAM1 181256Z 27003KT 01/M00 A2997 RMK A01 T00071002  RH  094%=      5-min Rain = 0
KAM1 181257Z 28003KT 01/M00 A2997 RMK A01 T00071003  RH  094%=      5-min Rain = 0
KAM1 181258Z 29003KT 01/M00 A2997 RMK A01 T00071002  RH  094%=      5-min Rain = 0
KAM1 181259Z 30003KT 01/M00 A2998 RMK A01 T00071003  RH  093%=      5-min Rain = 0
KAM1 181300Z 33002KT 01/M00 A2998 RMK A01 T00071004  RH  093%=      5-min Rain = 0
KAM1 181301Z 32002KT 01/M00 A2998 RMK A01 T00071003  RH  093%=      5-min Rain = 0
KAM1 181302Z 30003KT 01/M01 A2998 RMK A01 T00071005  RH  092%=      5-min Rain = 0
KAM1 181303Z 29003KT 01/M01 A2998 RMK A01 T00051007  RH  092%=      5-min Rain = 0
KAM1 181304Z 28004KT 00/M01 A2998 RMK A01 T00041008  RH  092%=      5-min Rain = 0
KAM1 181305Z 29004KT 00/M01 A2998 RMK A01 T00041007  RH  092%=      5-min Rain = 0
KAM1 181306Z 29004KT 00/M01 A2998 RMK A01 T00041007  RH  092%=      5-min Rain = 0
KAM1 181307Z 29004KT 00/M01 A2998 RMK A01 T00041008  RH  092%=      5-min Rain = 0
KAM1 181308Z 29005KT 00/M01 A2998 RMK A01 T00031008  RH  092%=      5-min Rain = 0
KAM1 181309Z 28005KT 00/M01 A2998 RMK A01 T00031008  RH  092%=      5-min Rain = 0
KAM1 181310Z 28005KT 00/M01 A2998 RMK A01 T00031007  RH  093%=      5-min Rain = 0
KAM1 181311Z 28005KT 00/M01 A2998 RMK A01 T00031007  RH  093%=      5-min Rain = 0
KAM1 181312Z 28005KT 00/M01 A2998 RMK A01 T00041005  RH  093%=      5-min Rain = 0
KAM1 181313Z 28005KT 01/M01 A2998 RMK A01 T00051005  RH  093%=      5-min Rain = 0
KAM1 181314Z 27005KT 01/M01 A2998 RMK A01 T00061005  RH  093%=      5-min Rain = 0
KAM1 181315Z 27005KT 01/M01 A2998 RMK A01 T00061005  RH  092%=      5-min Rain = 0
KAM1 181316Z 27005KT 01/M01 A2998 RMK A01 T00071005  RH  092%=      5-min Rain = 0
KAM1 181317Z 27005KT 01/M01 A2998 RMK A01 T00071006  RH  092%=      5-min Rain = 0
KAM1 181318Z 27005KT 01/M01 A2998 RMK A01 T00061007  RH  091%=      5-min Rain = 0
KAM1 181319Z 27005KT 01/M01 A2997 RMK A01 T00051008  RH  091%=      5-min Rain = 0
KAM1 181320Z 27005KT 00/M01 A2997 RMK A01 T00041008  RH  091%=      5-min Rain = 0
KAM1 181321Z 27005KT 00/M01 A2997 RMK A01 T00031009  RH  092%=      5-min Rain = 0
KAM1 181322Z 27006KT 00/M01 A2997 RMK A01 T00031009  RH  092%=      5-min Rain = 0
KAM1 181323Z 27007KT 00/M01 A2997 RMK A01 T00021009  RH  092%=      5-min Rain = 0
KAM1 181324Z 26008KT 00/M01 A2997 RMK A01 T00021009  RH  092%=      5-min Rain = 0
KAM1 181325Z 26008KT 00/M01 A2997 RMK A01 T00011010  RH  093%=      5-min Rain = 0
KAM1 181326Z 26008KT 00/01 A2997 RMK A01 T000000-9  RH  093%=      5-min Rain = 0
KAM1 181327Z 25008KT 00/01 A2997 RMK A01 T00-000-9  RH  094%=      5-min Rain = 0
KAM1 181328Z 25008KT 00/01 A2997 RMK A01 T00-000-9  RH  094%=      5-min Rain = 0
KAM1 181329Z 25008KT 00/01 A2996 RMK A01 T00-000-8  RH  094%=      5-min Rain = 0
KAM1 181330Z 24008KT 00/01 A2996 RMK A01 T00-000-8  RH  094%=      5-min Rain = 0
KAM1 181331Z 24008KT M00/M01 A2996 RMK A01 T10011009  RH  094%=      5-min Rain = 0
KAM1 181332Z 24008KT M00/M01 A2996 RMK A01 T10021010  RH  094%=      5-min Rain = 0
KAM1 181333Z 24008KT M00/M01 A2996 RMK A01 T10031011  RH  094%=      5-min Rain = 0
KAM1 181334Z 24008KT M00/M01 A2996 RMK A01 T10031011  RH  095%=      5-min Rain = 0
KAM1 181335Z 24008KT M00/M01 A2996 RMK A01 T10031010  RH  095%=      5-min Rain = 0
KAM1 181336Z 24008KT M00/M01 A2996 RMK A01 T10031009  RH  096%=      5-min Rain = 0
KAM1 181337Z 24007KT M00/M01 A2996 RMK A01 T10031008  RH  096%=      5-min Rain = 0
KAM1 181338Z 24007KT M00/M01 A2996 RMK A01 T10021007  RH  096%=      5-min Rain = 0
KAM1 181339Z 24006KT M00/M01 A2996 RMK A01 T10021007  RH  096%=      5-min Rain = 0
KAM1 181340Z 25006KT M00/M01 A2997 RMK A01 T10011007  RH  096%=      5-min Rain = 0
KAM1 181341Z 25005KT M00/M01 A2997 RMK A01 T10011006  RH  096%=      5-min Rain = 0
KAM1 181342Z 26004KT 00/01 A2997 RMK A01 T00-000-6  RH  096%=      5-min Rain = 0
KAM1 181343Z 27004KT 00/01 A2997 RMK A01 T000000-6  RH  096%=      5-min Rain = 0
KAM1 181344Z 27004KT 00/M01 A2997 RMK A01 T00011006  RH  095%=      5-min Rain = 0
KAM1 181345Z 26004KT 00/M01 A2997 RMK A01 T00011007  RH  095%=      5-min Rain = 0
KAM1 181346Z 26005KT 00/M01 A2997 RMK A01 T00011007  RH  094%=      5-min Rain = 0
KAM1 181347Z 26006KT 00/M01 A2997 RMK A01 T00011007  RH  094%=      5-min Rain = 0
KAM1 181348Z 26006KT 00/M01 A2997 RMK A01 T00011007  RH  094%=      5-min Rain = 0
KAM1 181349Z 27005KT 00/M01 A2997 RMK A01 T00011007  RH  094%=      5-min Rain = 0
KAM1 181350Z 27005KT 00/M01 A2997 RMK A01 T00021006  RH  094%=      5-min Rain = 0
KAM1 181351Z 27005KT 00/M01 A2997 RMK A01 T00021006  RH  094%=      5-min Rain = 0
KAM1 181352Z 27005KT 00/M01 A2997 RMK A01 T00031005  RH  094%=      5-min Rain = 0
KAM1 181353Z 27005KT 00/M01 A2997 RMK A01 T00031005  RH  094%=      5-min Rain = 0
KAM1 181354Z 26006KT 00/M01 A2997 RMK A01 T00041005  RH  094%=      5-min Rain = 0
KAM1 181355Z 26006KT 00/M00 A2997 RMK A01 T00041004  RH  094%=      5-min Rain = 0
KAM1 181356Z 26007KT 01/M00 A2997 RMK A01 T00051004  RH  094%=      5-min Rain = 0
KAM1 181357Z 26006KT 01/M00 A2997 RMK A01 T00071003  RH  094%=      5-min Rain = 0
KAM1 181358Z 26006KT 01/M00 A2997 RMK A01 T00071002  RH  093%=      5-min Rain = 0
KAM1 181359Z 26006KT 01/M00 A2997 RMK A01 T00081002  RH  093%=      5-min Rain = 0
KAM1 181400Z 27005KT 01/M00 A2997 RMK A01 T00091001  RH  093%=      5-min Rain = 0
KAM1 181401Z 27005KT 01/M00 A2997 RMK A01 T00101001  RH  092%=      5-min Rain = 0
KAM1 181402Z 27005KT 01/M00 A2997 RMK A01 T00111001  RH  092%=      5-min Rain = 0
KAM1 181403Z 28005KT 01/00 A2997 RMK A01 T001100-0  RH  092%=      5-min Rain = 0
KAM1 181404Z 28006KT 01/00 A2997 RMK A01 T00120000  RH  092%=      5-min Rain = 0
KAM1 181405Z 27006KT 01/00 A2997 RMK A01 T00130001  RH  092%=      5-min Rain = 0
KAM1 181406Z 27005KT 01/00 A2997 RMK A01 T00140001  RH  091%=      5-min Rain = 0
KAM1 181407Z 27005KT 01/00 A2997 RMK A01 T00140002  RH  091%=      5-min Rain = 0
KAM1 181408Z 28006KT 02/00 A2997 RMK A01 T00150002  RH  091%=      5-min Rain = 0
KAM1 181409Z 28006KT 02/00 A2997 RMK A01 T00160003  RH  091%=      5-min Rain = 0
KAM1 181410Z 28006KT 02/00 A2997 RMK A01 T00170003  RH  091%=      5-min Rain = 0
KAM1 181411Z 28007KT 02/00 A2997 RMK A01 T00190004  RH  090%=      5-min Rain = 0
KAM1 181412Z 28006KT 02/01 A2997 RMK A01 T00200005  RH  090%=      5-min Rain = 0
KAM1 181413Z 28006KT 02/01 A2997 RMK A01 T00220005  RH  089%=      5-min Rain = 0
KAM1 181414Z 28006KT 02/01 A2997 RMK A01 T00230005  RH  088%=      5-min Rain = 0
KAM1 181415Z 28006KT 02/01 A2997 RMK A01 T00240006  RH  088%=      5-min Rain = 0
KAM1 181416Z 28005KT 03/01 A2997 RMK A01 T00250007  RH  088%=      5-min Rain = 0
KAM1 181417Z 28005KT 03/01 A2997 RMK A01 T00260008  RH  088%=      5-min Rain = 0
KAM1 181418Z 27005KT 03/01 A2997 RMK A01 T00280009  RH  088%=      5-min Rain = 0
KAM1 181419Z 27004KT 03/01 A2997 RMK A01 T00300010  RH  087%=      5-min Rain = 0
KAM1 181420Z 27004KT 03/01 A2997 RMK A01 T00310010  RH  086%=      5-min Rain = 0
KAM1 181421Z 27004KT 03/01 A2997 RMK A01 T00320010  RH  085%=      5-min Rain = 0
KAM1 181422Z 28004KT 03/01 A2997 RMK A01 T00330010  RH  085%=      5-min Rain = 0
KAM1 181423Z 28003KT 04/01 A2997 RMK A01 T00350011  RH  085%=      5-min Rain = 0
KAM1 181424Z 29003KT 04/01 A2997 RMK A01 T00360012  RH  084%=      5-min Rain = 0
KAM1 181425Z 28003KT 04/01 A2997 RMK A01 T00370012  RH  084%=      5-min Rain = 0
KAM1 181426Z 28004KT 04/01 A2997 RMK A01 T00390013  RH  083%=      5-min Rain = 0
KAM1 181427Z 27004KT 04/01 A2997 RMK A01 T00410014  RH  083%=      5-min Rain = 0
KAM1 181428Z 26004KT 04/02 A2998 RMK A01 T00430015  RH  082%=      5-min Rain = 0
KAM1 181429Z 26005KT 04/01 A2998 RMK A01 T00440014  RH  081%=      5-min Rain = 0
KAM1 181430Z 26005KT 04/01 A2998 RMK A01 T00440013  RH  080%=      5-min Rain = 0
KAM1 181431Z 26005KT 05/01 A2998 RMK A01 T00450013  RH  080%=      5-min Rain = 0
KAM1 181432Z 26004KT 05/01 A2998 RMK A01 T00450014  RH  080%=      5-min Rain = 0
KAM1 181433Z 26004KT 05/02 A2998 RMK A01 T00460015  RH  080%=      5-min Rain = 0
KAM1 181434Z 26004KT 05/02 A2998 RMK A01 T00470015  RH  080%=      5-min Rain = 0
KAM1 181435Z 26004KT 05/01 A2998 RMK A01 T00470014  RH  079%=      5-min Rain = 0
KAM1 181436Z 26005KT 05/01 A2998 RMK A01 T00470014  RH  079%=      5-min Rain = 0
KAM1 181437Z 26005KT 05/01 A2998 RMK A01 T00480014  RH  079%=      5-min Rain = 0
KAM1 181438Z 26006KT 05/01 A2998 RMK A01 T00490014  RH  078%=      5-min Rain = 0
KAM1 181439Z 26005KT 05/01 A2998 RMK A01 T00500013  RH  077%=      5-min Rain = 0
KAM1 181440Z 26005KT 05/01 A2998 RMK A01 T00520013  RH  076%=      5-min Rain = 0
KAM1 181441Z 27005KT 05/01 A2998 RMK A01 T00530012  RH  075%=      5-min Rain = 0
KAM1 181442Z 27006KT 05/01 A2998 RMK A01 T00540010  RH  073%=      5-min Rain = 0
KAM1 181443Z 27004KT 05/01 A2998 RMK A01 T00540010  RH  073%=      5-min Rain = 0
KAM1 181444Z 28004KT 06/01 A2998 RMK A01 T00560013  RH  074%=      5-min Rain = 0
KAM1 181445Z 27005KT 06/01 A2998 RMK A01 T00580013  RH  073%=      5-min Rain = 0
KAM1 181446Z 27004KT 06/01 A2998 RMK A01 T00590012  RH  072%=      5-min Rain = 0
KAM1 181447Z 27005KT 06/01 A2998 RMK A01 T00600012  RH  072%=      5-min Rain = 0
KAM1 181448Z 27005KT 06/01 A2998 RMK A01 T00610014  RH  071%=      5-min Rain = 0
KAM1 181449Z 28004KT 06/01 A2998 RMK A01 T00630014  RH  071%=      5-min Rain = 0
KAM1 181450Z 28005KT 06/01 A2998 RMK A01 T00640014  RH  070%=      5-min Rain = 0
KAM1 181451Z 28004KT 07/01 A2998 RMK A01 T00660013  RH  069%=      5-min Rain = 0
KAM1 181452Z 27005KT 07/01 A2998 RMK A01 T00670013  RH  069%=      5-min Rain = 0
KAM1 181453Z 28005KT 07/01 A2998 RMK A01 T00690014  RH  068%=      5-min Rain = 0
KAM1 181454Z 28005KT 07/01 A2998 RMK A01 T00700014  RH  067%=      5-min Rain = 0
KAM1 181455Z 28005KT 07/01 A2998 RMK A01 T00710013  RH  066%=      5-min Rain = 0
KAM1 181456Z 27004KT 07/01 A2998 RMK A01 T00720012  RH  066%=      5-min Rain = 0
KAM1 181457Z 28004KT 07/01 A2998 RMK A01 T00730013  RH  066%=      5-min Rain = 0
KAM1 181458Z 28005KT 07/01 A2998 RMK A01 T00740013  RH  065%=      5-min Rain = 0
KAM1 181459Z 28004KT 08/01 A2998 RMK A01 T00750013  RH  065%=      5-min Rain = 0
KAM1 181500Z 28005KT 08/01 A2998 RMK A01 T00750013  RH  065%=      5-min Rain = 0
KAM1 181501Z 28004KT 08/01 A2999 RMK A01 T00760011  RH  063%=      5-min Rain = 0
KAM1 181502Z 28006KT 08/01 A2998 RMK A01 T00760011  RH  063%=      5-min Rain = 0
KAM1 181503Z 28005KT 08/01 A2998 RMK A01 T00770009  RH  062%=      5-min Rain = 0
KAM1 181504Z 28004KT 08/01 A2998 RMK A01 T00770009  RH  062%=      5-min Rain = 0
KAM1 181505Z 28004KT 08/01 A2998 RMK A01 T00780012  RH  063%=      5-min Rain = 0
KAM1 181506Z 28005KT 08/01 A2998 RMK A01 T00800012  RH  062%=      5-min Rain = 0
KAM1 181507Z 28006KT 08/01 A2998 RMK A01 T00800010  RH  061%=      5-min Rain = 0
KAM1 181508Z 28006KT 08/01 A2998 RMK A01 T00790009  RH  061%=      5-min Rain = 0
KAM1 181509Z 27004KT 08/01 A2999 RMK A01 T00790009  RH  061%=      5-min Rain = 0
KAM1 181510Z 28004KT 08/01 A2998 RMK A01 T00800011  RH  062%=      5-min Rain = 0
KAM1 181511Z 27005KT 08/01 A2998 RMK A01 T00820013  RH  062%=      5-min Rain = 0
KAM1 181512Z 27006KT 08/01 A2998 RMK A01 T00840014  RH  061%=      5-min Rain = 0
KAM1 181513Z 28006KT 09/01 A2998 RMK A01 T00850012  RH  060%=      5-min Rain = 0
KAM1 181514Z 27006KT 08/01 A2998 RMK A01 T00840011  RH  060%=      5-min Rain = 0
KAM1 181515Z 28006KT 08/01 A2998 RMK A01 T00840011  RH  060%=      5-min Rain = 0
KAM1 181516Z 27005KT 09/01 A2998 RMK A01 T00850011  RH  060%=      5-min Rain = 0
KAM1 181517Z 27006KT 09/01 A2998 RMK A01 T00860012  RH  060%=      5-min Rain = 0
KAM1 181518Z 28006KT 09/01 A2998 RMK A01 T00870014  RH  060%=      5-min Rain = 0
KAM1 181519Z 27005KT 09/02 A2999 RMK A01 T00890015  RH  060%=      5-min Rain = 0
KAM1 181520Z 28004KT 09/02 A2999 RMK A01 T00900016  RH  060%=      5-min Rain = 0
KAM1 181521Z 28005KT 09/02 A2999 RMK A01 T00900016  RH  059%=      5-min Rain = 0
KAM1 181522Z 26004KT 09/02 A2999 RMK A01 T00910016  RH  059%=      5-min Rain = 0
KAM1 181523Z 27004KT 09/02 A2999 RMK A01 T00920016  RH  059%=      5-min Rain = 0
KAM1 181524Z 26005KT 09/02 A2999 RMK A01 T00920016  RH  059%=      5-min Rain = 0
KAM1 181525Z 26006KT 09/02 A2999 RMK A01 T00930015  RH  058%=      5-min Rain = 0
KAM1 181526Z 25006KT 09/01 A2999 RMK A01 T00930014  RH  058%=      5-min Rain = 0
KAM1 181527Z 26006KT 09/01 A2999 RMK A01 T00940013  RH  057%=      5-min Rain = 0
KAM1 181528Z 26007KT 09/01 A2999 RMK A01 T00940013  RH  057%=      5-min Rain = 0
KAM1 181529Z 26006KT 09/01 A2999 RMK A01 T00940013  RH  057%=      5-min Rain = 0
KAM1 181530Z 27006KT 10/01 A2999 RMK A01 T00950013  RH  057%=      5-min Rain = 0
KAM1 181531Z 27005KT 10/01 A2999 RMK A01 T00950013  RH  056%=      5-min Rain = 0
KAM1 181532Z 27006KT 10/01 A2999 RMK A01 T00960013  RH  056%=      5-min Rain = 0
KAM1 181533Z 27005KT 10/01 A2999 RMK A01 T00960013  RH  056%=      5-min Rain = 0
KAM1 181534Z 26004KT 10/02 A2999 RMK A01 T00970016  RH  057%=      5-min Rain = 0
KAM1 181535Z 26005KT 10/02 A2999 RMK A01 T00970016  RH  057%=      5-min Rain = 0
KAM1 181536Z 26004KT 10/02 A2999 RMK A01 T00970015  RH  057%=      5-min Rain = 0
KAM1 181537Z 27004KT 10/01 A2999 RMK A01 T00980014  RH  056%=      5-min Rain = 0
KAM1 181538Z 27004KT 10/01 A2999 RMK A01 T00980014  RH  056%=      5-min Rain = 0
KAM1 181539Z 28004KT 10/01 A2999 RMK A01 T00980014  RH  056%=      5-min Rain = 0
KAM1 181540Z 27004KT 10/02 A2999 RMK A01 T00990015  RH  056%=      5-min Rain = 0
KAM1 181541Z 28005KT 10/02 A2999 RMK A01 T01000016  RH  056%=      5-min Rain = 0
KAM1 181542Z 30004KT 10/02 A2999 RMK A01 T01010015  RH  055%=      5-min Rain = 0
KAM1 181543Z 28004KT 10/01 A2999 RMK A01 T01030014  RH  054%=      5-min Rain = 0
KAM1 181544Z 28004KT 10/01 A2999 RMK A01 T01040013  RH  054%=      5-min Rain = 0
KAM1 181545Z 27005KT 11/02 A2999 RMK A01 T01050015  RH  054%=      5-min Rain = 0
KAM1 181546Z 27003KT 11/01 A2999 RMK A01 T01060014  RH  053%=      5-min Rain = 0
KAM1 181547Z 28003KT 11/01 A2999 RMK A01 T01060013  RH  052%=      5-min Rain = 0
KAM1 181548Z 28005KT 11/01 A2999 RMK A01 T01060013  RH  053%=      5-min Rain = 0
KAM1 181549Z 29006KT 11/02 A2999 RMK A01 T01080015  RH  053%=      5-min Rain = 0
KAM1 181550Z 29003KT 11/01 A2999 RMK A01 T01090014  RH  052%=      5-min Rain = 0
KAM1 181551Z 27005KT 11/02 A2999 RMK A01 T01110016  RH  052%=      5-min Rain = 0
KAM1 181552Z 29006KT 11/02 A2999 RMK A01 T01130016  RH  052%=      5-min Rain = 0
KAM1 181553Z 29007KT 11/02 A2999 RMK A01 T01140015  RH  051%=      5-min Rain = 0
KAM1 181554Z 30007KT 11/01 A2999 RMK A01 T01140013  RH  050%=      5-min Rain = 0
KAM1 181555Z 32006KT 11/01 A2999 RMK A01 T01140013  RH  050%=      5-min Rain = 0
KAM1 181556Z 30005KT 12/02 A2999 RMK A01 T01150015  RH  050%=      5-min Rain = 0
KAM1 181557Z 30006KT 12/02 A2999 RMK A01 T01170017  RH  050%=      5-min Rain = 0
KAM1 181558Z 30007KT 12/01 A2999 RMK A01 T01180014  RH  049%=      5-min Rain = 0
KAM1 181559Z 30007KT 12/01 A2999 RMK A01 T01180013  RH  049%=      5-min Rain = 0
KAM1 181600Z 30005KT 12/01 A2999 RMK A01 T01170013  RH  049%=      5-min Rain = 0
KAM1 181601Z 30007KT 12/01 A2999 RMK A01 T01170013  RH  049%=      5-min Rain = 0
KAM1 181602Z 30008KT 12/01 A2999 RMK A01 T01170013  RH  049%=      5-min Rain = 0
KAM1 181603Z 32007KT 12/01 A2999 RMK A01 T01180013  RH  049%=      5-min Rain = 0
KAM1 181604Z 29005KT 12/01 A2999 RMK A01 T01190014  RH  049%=      5-min Rain = 0
KAM1 181605Z 31006KT 12/02 A2999 RMK A01 T01200015  RH  048%=      5-min Rain = 0
KAM1 181606Z 30005KT 12/01 A2999 RMK A01 T01210014  RH  048%=      5-min Rain = 0
KAM1 181607Z 29006KT 12/02 A2999 RMK A01 T01210016  RH  048%=      5-min Rain = 0
KAM1 181608Z 31006KT 12/02 A2999 RMK A01 T01230017  RH  048%=      5-min Rain = 0
KAM1 181609Z 30005KT 13/02 A2999 RMK A01 T01250017  RH  048%=      5-min Rain = 0
KAM1 181610Z 29006KT 13/01 A2999 RMK A01 T01250014  RH  047%=      5-min Rain = 0
KAM1 181611Z 29007KT 12/02 A2999 RMK A01 T01240016  RH  047%=      5-min Rain = 0
KAM1 181612Z 29007KT 13/02 A2999 RMK A01 T01250016  RH  047%=      5-min Rain = 0
KAM1 181613Z 30006KT 13/01 A2999 RMK A01 T01250014  RH  047%=      5-min Rain = 0
KAM1 181614Z 30004KT 12/01 A2999 RMK A01 T01240013  RH  047%=      5-min Rain = 0
KAM1 181615Z 30004KT 12/02 A2999 RMK A01 T01240015  RH  047%=      5-min Rain = 0
KAM1 181616Z 30005KT 13/02 A2999 RMK A01 T01250017  RH  047%=      5-min Rain = 0
KAM1 181617Z 30004KT 13/02 A2999 RMK A01 T01280016  RH  047%=      5-min Rain = 0
KAM1 181618Z 30005KT 13/01 A2999 RMK A01 T01270014  RH  046%=      5-min Rain = 0
KAM1 181619Z 30006KT 13/01 A2999 RMK A01 T01270014  RH  046%=      5-min Rain = 0
KAM1 181620Z 29005KT 13/01 A2999 RMK A01 T01260014  RH  046%=      5-min Rain = 0
KAM1 181621Z 28005KT 13/02 A2998 RMK A01 T01270015  RH  046%=      5-min Rain = 0
KAM1 181622Z 28005KT 13/02 A2998 RMK A01 T01270015  RH  046%=      5-min Rain = 0
KAM1 181623Z 28005KT 13/02 A2999 RMK A01 T01290016  RH  046%=      5-min Rain = 0
KAM1 181624Z 28006KT 13/02 A2999 RMK A01 T01320018  RH  046%=      5-min Rain = 0
KAM1 181625Z 31005KT 13/02 A2999 RMK A01 T01330016  RH  045%=      5-min Rain = 0
KAM1 181626Z 28005KT 13/02 A2999 RMK A01 T01320016  RH  045%=      5-min Rain = 0
KAM1 181627Z 31004KT 13/02 A2999 RMK A01 T01320015  RH  045%=      5-min Rain = 0
KAM1 181628Z 32004KT 13/01 A2999 RMK A01 T01310014  RH  045%=      5-min Rain = 0
KAM1 181629Z 31004KT 13/01 A2999 RMK A01 T01300014  RH  045%=      5-min Rain = 0
KAM1 181630Z 30004KT 13/01 A2999 RMK A01 T01310014  RH  045%=      5-min Rain = 0
KAM1 181631Z 31005KT 13/02 A2999 RMK A01 T01320015  RH  045%=      5-min Rain = 0
KAM1 181632Z 30006KT 13/02 A2999 RMK A01 T01330015  RH  044%=      5-min Rain = 0
KAM1 181633Z 30004KT 13/01 A2999 RMK A01 T01340014  RH  044%=      5-min Rain = 0
KAM1 181634Z 30004KT 13/01 A2999 RMK A01 T01340014  RH  044%=      5-min Rain = 0
KAM1 181635Z 31006KT 14/01 A2999 RMK A01 T01350014  RH  044%=      5-min Rain = 0
KAM1 181636Z 32005KT 14/01 A2999 RMK A01 T01360014  RH  043%=      5-min Rain = 0
KAM1 181637Z 32006KT 14/02 A2999 RMK A01 T01380016  RH  044%=      5-min Rain = 0
KAM1 181638Z 32006KT 14/01 A2999 RMK A01 T01390014  RH  043%=      5-min Rain = 0
KAM1 181639Z 32004KT 14/01 A2999 RMK A01 T01380013  RH  043%=      5-min Rain = 0
KAM1 181640Z 31003KT 14/01 A2998 RMK A01 T01370014  RH  043%=      5-min Rain = 0
KAM1 181641Z 32005KT 14/02 A2998 RMK A01 T01380017  RH  044%=      5-min Rain = 0
KAM1 181642Z 33006KT 14/02 A2998 RMK A01 T01410016  RH  043%=      5-min Rain = 0
KAM1 181643Z 34006KT 14/01 A2998 RMK A01 T01420014  RH  042%=      5-min Rain = 0
KAM1 181644Z 33007KT 14/02 A2999 RMK A01 T01410015  RH  042%=      5-min Rain = 0
KAM1 181645Z 32006KT 14/02 A2999 RMK A01 T01410015  RH  042%=      5-min Rain = 0
KAM1 181646Z 32004KT 14/02 A2999 RMK A01 T01420016  RH  043%=      5-min Rain = 0
KAM1 181647Z 34006KT 14/02 A2999 RMK A01 T01420017  RH  043%=      5-min Rain = 0
KAM1 181648Z 33007KT 14/02 A2999 RMK A01 T01430017  RH  042%=      5-min Rain = 0
KAM1 181649Z 33006KT 15/02 A2999 RMK A01 T01450018  RH  042%=      5-min Rain = 0
KAM1 181650Z 33009KT 15/02 A2999 RMK A01 T01470019  RH  042%=      5-min Rain = 0
KAM1 181651Z 32008KT 15/02 A2999 RMK A01 T01470016  RH  041%=      5-min Rain = 0
KAM1 181652Z 32008KT 15/02 A2999 RMK A01 T01460016  RH  041%=      5-min Rain = 0
KAM1 181653Z 34007KT 15/02 A2999 RMK A01 T01490019  RH  041%=      5-min Rain = 0
KAM1 181654Z 34008KT 15/02 A2999 RMK A01 T01510017  RH  040%=      5-min Rain = 0
KAM1 181655Z 34009KT 15/02 A2999 RMK A01 T01500016  RH  040%=      5-min Rain = 0
KAM1 181656Z 34008KT 15/02 A2999 RMK A01 T01490016  RH  040%=      5-min Rain = 0
KAM1 181657Z 33009KT 15/02 A2999 RMK A01 T01500016  RH  040%=      5-min Rain = 0
KAM1 181658Z 33008KT 15/02 A2999 RMK A01 T01500016  RH  040%=      5-min Rain = 0
KAM1 181659Z 33007KT 15/02 A30 RMK A01 T01510017  RH  040%=      5-min Rain = 0
KAM1 181700Z 33007KT 15/02 A30 RMK A01 T01520017  RH  040%=      5-min Rain = 0
KAM1 181701Z 34006KT 15/02 A30 RMK A01 T01530020  RH  041%=      5-min Rain = 0
KAM1 181702Z 33008KT 16/02 A30 RMK A01 T01580022  RH  040%=      5-min Rain = 0
KAM1 181703Z 33006KT 16/02 A30 RMK A01 T01590019  RH  039%=      5-min Rain = 0
KAM1 181704Z 34008KT 16/02 A30 RMK A01 T01600020  RH  039%=      5-min Rain = 0
KAM1 181705Z 32008KT 16/02 A30 RMK A01 T01600019  RH  039%=      5-min Rain = 0
KAM1 181706Z 33009KT 16/02 A2999 RMK A01 T01590017  RH  038%=      5-min Rain = 0
KAM1 181707Z 32007KT 16/02 A30 RMK A01 T01580016  RH  038%=      5-min Rain = 0
KAM1 181708Z 33008KT 16/02 A30 RMK A01 T01570017  RH  039%=      5-min Rain = 0
KAM1 181709Z 35010KT 16/02 A30 RMK A01 T01580017  RH  039%=      5-min Rain = 0
KAM1 181710Z 36012KT 16/02 A30 RMK A01 T01580016  RH  038%=      5-min Rain = 0
KAM1 181711Z 35011KT 16/02 A30 RMK A01 T01580017  RH  038%=      5-min Rain = 0
KAM1 181712Z 35011KT 16/02 A30 RMK A01 T01580017  RH  038%=      5-min Rain = 0
KAM1 181713Z 34009KT 16/02 A30 RMK A01 T01580017  RH  038%=      5-min Rain = 0
KAM1 181714Z 34008KT 16/02 A30 RMK A01 T01570016  RH  039%=      5-min Rain = 0
KAM1 181715Z 34010KT 16/02 A30 RMK A01 T01570019  RH  039%=      5-min Rain = 0
KAM1 181716Z 33009KT 16/02 A2999 RMK A01 T01580016  RH  038%=      5-min Rain = 0
KAM1 181717Z 34009KT 16/02 A2999 RMK A01 T01560016  RH  039%=      5-min Rain = 0
KAM1 181718Z 33008KT 16/02 A2999 RMK A01 T01550015  RH  039%=      5-min Rain = 0
KAM1 181719Z 32007KT 15/02 A2999 RMK A01 T01540016  RH  039%=      5-min Rain = 0
KAM1 181720Z 31006KT 15/02 A2998 RMK A01 T01530015  RH  039%=      5-min Rain = 0
KAM1 181721Z 32007KT 15/02 A2998 RMK A01 T01540017  RH  039%=      5-min Rain = 0
KAM1 181722Z 33006KT 15/02 A2998 RMK A01 T01540015  RH  039%=      5-min Rain = 0
KAM1 181723Z 32007KT 15/02 A2998 RMK A01 T01540015  RH  039%=      5-min Rain = 0
KAM1 181724Z 35006KT 16/02 A2998 RMK A01 T01550018  RH  039%=      5-min Rain = 0
KAM1 181725Z 36006KT 16/02 A2998 RMK A01 T01570016  RH  038%=      5-min Rain = 0
KAM1 181726Z 34005KT 16/02 A2998 RMK A01 T01580017  RH  039%=      5-min Rain = 0
KAM1 181727Z 33006KT 16/02 A2998 RMK A01 T01580017  RH  039%=      5-min Rain = 0
KAM1 181728Z 35006KT 16/02 A2998 RMK A01 T01590019  RH  039%=      5-min Rain = 0
KAM1 181729Z 00006KT 16/02 A2998 RMK A01 T01620019  RH  038%=      5-min Rain = 0
KAM1 181730Z 36005KT 16/02 A2998 RMK A01 T01630018  RH  037%=      5-min Rain = 0
KAM1 181731Z 01005KT 16/01 A2998 RMK A01 T01620014  RH  037%=      5-min Rain = 0
KAM1 181732Z 01005KT 16/02 A2998 RMK A01 T01610017  RH  038%=      5-min Rain = 0
KAM1 181733Z 01008KT 16/02 A2998 RMK A01 T01620017  RH  038%=      5-min Rain = 0
KAM1 181734Z 01007KT 16/02 A2998 RMK A01 T01620015  RH  037%=      5-min Rain = 0
KAM1 181735Z 02006KT 16/01 A2998 RMK A01 T01630014  RH  037%=      5-min Rain = 0
KAM1 181736Z 02006KT 16/02 A2998 RMK A01 T01620016  RH  037%=      5-min Rain = 0
KAM1 181737Z 00007KT 16/02 A2998 RMK A01 T01620018  RH  038%=      5-min Rain = 0
KAM1 181738Z 35004KT 16/02 A2998 RMK A01 T01610016  RH  038%=      5-min Rain = 0
KAM1 181739Z 35005KT 16/02 A2998 RMK A01 T01610017  RH  038%=      5-min Rain = 0
KAM1 181740Z 00005KT 16/02 A2998 RMK A01 T01610015  RH  037%=      5-min Rain = 0
KAM1 181741Z 35003KT 16/01 A2998 RMK A01 T01600012  RH  037%=      5-min Rain = 0
KAM1 181742Z 01003KT 16/02 A2998 RMK A01 T01590015  RH  038%=      5-min Rain = 0
KAM1 181743Z 00005KT 16/02 A2998 RMK A01 T01620018  RH  038%=      5-min Rain = 0
KAM1 181744Z 35005KT 16/02 A2998 RMK A01 T01630017  RH  037%=      5-min Rain = 0
KAM1 181745Z 36007KT 16/02 A2998 RMK A01 T01640018  RH  037%=      5-min Rain = 0
KAM1 181746Z 01005KT 16/02 A2998 RMK A01 T01640016  RH  037%=      5-min Rain = 0
KAM1 181747Z 01006KT 16/02 A2998 RMK A01 T01640016  RH  037%=      5-min Rain = 0
KAM1 181748Z 01006KT 16/02 A2998 RMK A01 T01640016  RH  037%=      5-min Rain = 0
KAM1 181749Z 00006KT 17/02 A2998 RMK A01 T01650020  RH  038%=      5-min Rain = 0
KAM1 181750Z 01007KT 17/02 A2998 RMK A01 T01700021  RH  037%=      5-min Rain = 0
KAM1 181751Z 36006KT 17/02 A2997 RMK A01 T01710020  RH  036%=      5-min Rain = 0
KAM1 181752Z 36006KT 17/02 A2997 RMK A01 T01730018  RH  035%=      5-min Rain = 0
KAM1 181753Z 36007KT 17/02 A2997 RMK A01 T01730016  RH  035%=      5-min Rain = 0
KAM1 181754Z 36006KT 17/02 A2997 RMK A01 T01720018  RH  035%=      5-min Rain = 0
KAM1 181755Z 36007KT 17/02 A2997 RMK A01 T01710017  RH  036%=      5-min Rain = 0
KAM1 181756Z 00009KT 17/02 A2998 RMK A01 T01710018  RH  036%=      5-min Rain = 0
KAM1 181757Z 00009KT 17/02 A2998 RMK A01 T01710017  RH  035%=      5-min Rain = 0
KAM1 181758Z 35005KT 17/02 A2998 RMK A01 T01700016  RH  035%=      5-min Rain = 0
KAM1 181759Z 35007KT 17/02 A2998 RMK A01 T01690018  RH  036%=      5-min Rain = 0
KAM1 181800Z 36007KT 17/02 A2997 RMK A01 T01710016  RH  035%=      5-min Rain = 0
KAM1 181801Z 01007KT 17/01 A2997 RMK A01 T01710013  RH  034%=      5-min Rain = 0
KAM1 181802Z 34006KT 17/01 A2997 RMK A01 T01700011  RH  034%=      5-min Rain = 0
KAM1 181803Z 34005KT 17/02 A2997 RMK A01 T01690015  RH  035%=      5-min Rain = 0
KAM1 181804Z 36009KT 17/02 A2997 RMK A01 T01720017  RH  035%=      5-min Rain = 0
KAM1 181805Z 35007KT 17/01 A2997 RMK A01 T01730013  RH  034%=      5-min Rain = 0
KAM1 181806Z 36007KT 17/01 A2997 RMK A01 T01720013  RH  034%=      5-min Rain = 0
KAM1 181807Z 35008KT 17/01 A2997 RMK A01 T01720013  RH  034%=      5-min Rain = 0
KAM1 181808Z 01006KT 17/02 A2997 RMK A01 T01720015  RH  035%=      5-min Rain = 0
KAM1 181809Z 36007KT 17/01 A2997 RMK A01 T01720012  RH  034%=      5-min Rain = 0
KAM1 181810Z 34006KT 17/01 A2997 RMK A01 T01720013  RH  034%=      5-min Rain = 0
KAM1 181811Z 35005KT 17/01 A2997 RMK A01 T01730013  RH  034%=      5-min Rain = 0
KAM1 181812Z 33008KT 17/01 A2997 RMK A01 T01720011  RH  034%=      5-min Rain = 0
KAM1 181813Z 34007KT 17/01 A2997 RMK A01 T01730013  RH  034%=      5-min Rain = 0
KAM1 181814Z 34006KT 17/01 A2997 RMK A01 T01740010  RH  033%=      5-min Rain = 0
KAM1 181815Z 35006KT 17/01 A2997 RMK A01 T01740011  RH  033%=      5-min Rain = 0
KAM1 181816Z 34005KT 17/01 A2997 RMK A01 T01740011  RH  033%=      5-min Rain = 0
KAM1 181817Z 34006KT 18/02 A2997 RMK A01 T01750015  RH  034%=      5-min Rain = 0
KAM1 181818Z 01005KT 18/02 A2997 RMK A01 T01780015  RH  034%=      5-min Rain = 0
KAM1 181819Z 34005KT 18/01 A2997 RMK A01 T01780013  RH  033%=      5-min Rain = 0
KAM1 181820Z 35006KT 18/01 A2997 RMK A01 T01780014  RH  033%=      5-min Rain = 0
KAM1 181821Z 36005KT 18/01 A2997 RMK A01 T01780012  RH  033%=      5-min Rain = 0
KAM1 181822Z 35005KT 18/01 A2996 RMK A01 T01780014  RH  033%=      5-min Rain = 0
KAM1 181823Z 01006KT 18/01 A2996 RMK A01 T01800014  RH  033%=      5-min Rain = 0
KAM1 181824Z 35006KT 18/01 A2996 RMK A01 T01810011  RH  032%=      5-min Rain = 0
KAM1 181825Z 36005KT 18/01 A2996 RMK A01 T01810011  RH  032%=      5-min Rain = 0
KAM1 181826Z 35003KT 18/01 A2996 RMK A01 T01800010  RH  032%=      5-min Rain = 0
KAM1 181827Z 36003KT 18/01 A2996 RMK A01 T01790010  RH  032%=      5-min Rain = 0
KAM1 181828Z 34005KT 18/01 A2996 RMK A01 T01790012  RH  032%=      5-min Rain = 0
KAM1 181829Z 36005KT 18/01 A2996 RMK A01 T01810014  RH  033%=      5-min Rain = 0
KAM1 181830Z 34005KT 18/01 A2996 RMK A01 T01820011  RH  032%=      5-min Rain = 0
KAM1 181831Z 34006KT 18/01 A2996 RMK A01 T01830010  RH  031%=      5-min Rain = 0
KAM1 181832Z 35005KT 18/01 A2996 RMK A01 T01840009  RH  031%=      5-min Rain = 0
KAM1 181833Z 34005KT 18/01 A2996 RMK A01 T01830011  RH  032%=      5-min Rain = 0
KAM1 181834Z 33003KT 18/01 A2996 RMK A01 T01830010  RH  031%=      5-min Rain = 0
KAM1 181835Z 33003KT 18/01 A2996 RMK A01 T01820009  RH  031%=      5-min Rain = 0
KAM1 181836Z 36006KT 18/01 A2996 RMK A01 T01830010  RH  031%=      5-min Rain = 0
KAM1 181837Z 01005KT 19/01 A2996 RMK A01 T01850009  RH  031%=      5-min Rain = 0
KAM1 181838Z 01004KT 19/01 A2996 RMK A01 T01860013  RH  031%=      5-min Rain = 0
KAM1 181839Z 35005KT 19/02 A2996 RMK A01 T01890016  RH  031%=      5-min Rain = 0
KAM1 181840Z 35006KT 19/01 A2995 RMK A01 T01900009  RH  030%=      5-min Rain = 0
KAM1 181841Z 00005KT 19/01 A2995 RMK A01 T01900007  RH  029%=      5-min Rain = 0
KAM1 181842Z 00005KT 19/00 A2995 RMK A01 T01900003  RH  028%=      5-min Rain = 0
KAM1 181843Z 00005KT 19/M00 A2995 RMK A01 T01901001  RH  028%=      5-min Rain = 0
KAM1 181844Z 02003KT 19/00 A2995 RMK A01 T01900001  RH  028%=      5-min Rain = 0
KAM1 181845Z 36003KT 19/00 A2995 RMK A01 T01900001  RH  028%=      5-min Rain = 0
KAM1 181846Z 32001KT 19/01 A2995 RMK A01 T01900006  RH  029%=      5-min Rain = 0
KAM1 181847Z 00002KT 19/01 A2995 RMK A01 T01910011  RH  030%=      5-min Rain = 0
KAM1 181848Z 33004KT 19/01 A2995 RMK A01 T01930014  RH  030%=      5-min Rain = 0
KAM1 181849Z 33004KT 20/01 A2995 RMK A01 T01960013  RH  030%=      5-min Rain = 0
KAM1 181850Z 32003KT 20/01 A2995 RMK A01 T01970010  RH  029%=      5-min Rain = 0
KAM1 181851Z 32001KT 20/01 A2995 RMK A01 T01960008  RH  028%=      5-min Rain = 0
KAM1 181852Z 02003KT 20/01 A2995 RMK A01 T01960008  RH  028%=      5-min Rain = 0
KAM1 181853Z 01003KT 20/01 A2995 RMK A01 T01970010  RH  029%=      5-min Rain = 0
KAM1 181854Z 35004KT 20/01 A2995 RMK A01 T01980007  RH  028%=      5-min Rain = 0
KAM1 181855Z 34006KT 20/01 A2995 RMK A01 T01980008  RH  028%=      5-min Rain = 0
KAM1 181856Z 34004KT 20/00 A2995 RMK A01 T01980004  RH  027%=      5-min Rain = 0
KAM1 181857Z 00004KT 20/01 A2995 RMK A01 T01980007  RH  028%=      5-min Rain = 0
KAM1 181858Z 01005KT 20/01 A2995 RMK A01 T01990008  RH  028%=      5-min Rain = 0
KAM1 181859Z 36006KT 20/01 A2995 RMK A01 T02000006  RH  027%=      5-min Rain = 0
KAM1 181900Z 01005KT 20/00 A2995 RMK A01 T02010004  RH  027%=      5-min Rain = 0
KAM1 181901Z 01007KT 20/00 A2995 RMK A01 T02010003  RH  027%=      5-min Rain = 0
KAM1 181902Z 01005KT 20/00 A2995 RMK A01 T02000001  RH  026%=      5-min Rain = 0
KAM1 181903Z 35004KT 20/00 A2995 RMK A01 T02000004  RH  027%=      5-min Rain = 0
KAM1 181904Z 34006KT 20/01 A2994 RMK A01 T02020008  RH  027%=      5-min Rain = 0
KAM1 181905Z 35005KT 20/01 A2994 RMK A01 T02030008  RH  027%=      5-min Rain = 0
KAM1 181906Z 01005KT 20/01 A2994 RMK A01 T02030006  RH  027%=      5-min Rain = 0
KAM1 181907Z 36007KT 20/00 A2994 RMK A01 T02030004  RH  026%=      5-min Rain = 0
KAM1 181908Z 34005KT 20/M00 A2994 RMK A01 T02031003  RH  025%=      5-min Rain = 0
KAM1 181909Z 34006KT 20/M00 A2994 RMK A01 T02021002  RH  025%=      5-min Rain = 0
KAM1 181910Z 34006KT 20/00 A2994 RMK A01 T020300-0  RH  026%=      5-min Rain = 0
KAM1 181911Z 34006KT 21/00 A2994 RMK A01 T02050004  RH  026%=      5-min Rain = 0
KAM1 181912Z 35004KT 21/00 A2994 RMK A01 T02050004  RH  026%=      5-min Rain = 0
KAM1 181913Z 35005KT 21/01 A2994 RMK A01 T02070008  RH  027%=      5-min Rain = 0
KAM1 181914Z 35007KT 21/00 A2994 RMK A01 T021000-0  RH  025%=      5-min Rain = 0
KAM1 181915Z 35007KT 21/00 A2994 RMK A01 T02110001  RH  025%=      5-min Rain = 0
KAM1 181916Z 00007KT 21/00 A2994 RMK A01 T021000-0  RH  024%=      5-min Rain = 0
KAM1 181917Z 00007KT 21/M00 A2994 RMK A01 T02101004  RH  024%=      5-min Rain = 0
KAM1 181918Z 35009KT 21/M01 A2994 RMK A01 T02101005  RH  024%=      5-min Rain = 0
KAM1 181919Z 36006KT 21/M01 A2994 RMK A01 T02091006  RH  024%=      5-min Rain = 0
KAM1 181920Z 36007KT 21/M01 A2994 RMK A01 T02091007  RH  024%=      5-min Rain = 0
KAM1 181921Z 36008KT 21/00 A2994 RMK A01 T02100000  RH  025%=      5-min Rain = 0
KAM1 181922Z 02009KT 21/M00 A2994 RMK A01 T02131002  RH  024%=      5-min Rain = 0
KAM1 181923Z 01006KT 21/M01 A2994 RMK A01 T02131005  RH  023%=      5-min Rain = 0
KAM1 181924Z 01008KT 21/M01 A2994 RMK A01 T02131005  RH  023%=      5-min Rain = 0
KAM1 181925Z 03007KT 21/M01 A2994 RMK A01 T02141008  RH  023%=      5-min Rain = 0
KAM1 181926Z 02006KT 22/M01 A2994 RMK A01 T02151005  RH  023%=      5-min Rain = 0
KAM1 181927Z 00008KT 22/M00 A2994 RMK A01 T02161002  RH  023%=      5-min Rain = 0
KAM1 181928Z 00008KT 22/M01 A2993 RMK A01 T02161006  RH  023%=      5-min Rain = 0
KAM1 181929Z 00009KT 22/M00 A2993 RMK A01 T02161004  RH  023%=      5-min Rain = 0
KAM1 181930Z 36008KT 22/M00 A2993 RMK A01 T02161001  RH  024%=      5-min Rain = 0
KAM1 181931Z 36007KT 22/00 A2993 RMK A01 T02160001  RH  024%=      5-min Rain = 0
KAM1 181932Z 01008KT 22/M00 A2993 RMK A01 T02171003  RH  023%=      5-min Rain = 0
KAM1 181933Z 03009KT 22/M01 A2993 RMK A01 T02161005  RH  023%=      5-min Rain = 0
KAM1 181934Z 02007KT 22/M01 A2993 RMK A01 T02161006  RH  023%=      5-min Rain = 0
KAM1 181935Z 02007KT 21/M01 A2993 RMK A01 T02141006  RH  023%=      5-min Rain = 0
KAM1 181936Z 03007KT 22/M01 A2993 RMK A01 T02151005  RH  023%=      5-min Rain = 0
KAM1 181937Z 35010KT 22/M01 A2993 RMK A01 T02161006  RH  023%=      5-min Rain = 0
KAM1 181938Z 00010KT 22/M01 A2993 RMK A01 T02171006  RH  023%=      5-min Rain = 0
KAM1 181939Z 01008KT 22/M01 A2993 RMK A01 T02171006  RH  023%=      5-min Rain = 0
KAM1 181940Z 00006KT 22/M01 A2993 RMK A01 T02171005  RH  023%=      5-min Rain = 0
KAM1 181941Z 02006KT 22/M00 A2993 RMK A01 T02171004  RH  023%=      5-min Rain = 0
KAM1 181942Z 00007KT 22/M00 A2993 RMK A01 T02181001  RH  023%=      5-min Rain = 0
KAM1 181943Z 02006KT 22/00 A2993 RMK A01 T02180000  RH  023%=      5-min Rain = 0
KAM1 181944Z 01007KT 22/00 A2993 RMK A01 T02190001  RH  023%=      5-min Rain = 0
KAM1 181945Z 00010KT 22/00 A2993 RMK A01 T02200001  RH  023%=      5-min Rain = 0
KAM1 181946Z 00007G14KT 22/M00 A2993 RMK A01 T02211001  RH  023%=      5-min Rain = 0
KAM1 181947Z 00011KT 22/00 A2993 RMK A01 T022000-0  RH  023%=      5-min Rain = 0
KAM1 181948Z 01008KT 22/M00 A2993 RMK A01 T02211001  RH  023%=      5-min Rain = 0
KAM1 181949Z 01006KT 22/M00 A2993 RMK A01 T02221001  RH  023%=      5-min Rain = 0
KAM1 181950Z 01008KT 22/M00 A2993 RMK A01 T02221004  RH  022%=      5-min Rain = 0
KAM1 181951Z 00009KT 22/M00 A2993 RMK A01 T02211003  RH  022%=      5-min Rain = 0
KAM1 181952Z 01007KT 22/M01 A2993 RMK A01 T02231010  RH  021%=      5-min Rain = 0
KAM1 181953Z 01011KT 22/M01 A2993 RMK A01 T02231010  RH  021%=      5-min Rain = 0
KAM1 181954Z 00011KT 22/M02 A2993 RMK A01 T02231015  RH  020%=      5-min Rain = 0
KAM1 181955Z 01008KT 22/M02 A2993 RMK A01 T02231015  RH  020%=      5-min Rain = 0
KAM1 181956Z 01006KT 22/M02 A2993 RMK A01 T02221018  RH  020%=      5-min Rain = 0
KAM1 181957Z 02009KT 22/M01 A2993 RMK A01 T02221014  RH  021%=      5-min Rain = 0
KAM1 181958Z 02010KT 22/M01 A2993 RMK A01 T02231014  RH  020%=      5-min Rain = 0
KAM1 181959Z 00011KT 22/M01 A2993 RMK A01 T02241013  RH  021%=      5-min Rain = 0
KAM1 182000Z 01010KT 22/M01 A2993 RMK A01 T02231011  RH  021%=      5-min Rain = 0
KAM1 182001Z 02010KT 22/M01 A2993 RMK A01 T02221009  RH  021%=      5-min Rain = 0
KAM1 182002Z 01008KT 22/M01 A2993 RMK A01 T02221009  RH  021%=      5-min Rain = 0
KAM1 182003Z 01011KT 22/M01 A2993 RMK A01 T02231011  RH  021%=      5-min Rain = 0
KAM1 182004Z 03010KT 22/M01 A2993 RMK A01 T02241008  RH  021%=      5-min Rain = 0
KAM1 182005Z 02009KT 22/M01 A2993 RMK A01 T02241008  RH  021%=      5-min Rain = 0
KAM1 182006Z 02008KT 22/M01 A2993 RMK A01 T02231007  RH  022%=      5-min Rain = 0
KAM1 182007Z 00008G13KT 22/M00 A2993 RMK A01 T02231004  RH  022%=      5-min Rain = 0
KAM1 182008Z 00011KT 22/M00 A2993 RMK A01 T02241004  RH  022%=      5-min Rain = 0
KAM1 182009Z 01008KT 22/M01 A2993 RMK A01 T02231005  RH  022%=      5-min Rain = 0
KAM1 182010Z 01010KT 23/M00 A2993 RMK A01 T02251002  RH  022%=      5-min Rain = 0
KAM1 182011Z 02010KT 23/M01 A2993 RMK A01 T02261007  RH  021%=      5-min Rain = 0
KAM1 182012Z 02008KT 23/M01 A2993 RMK A01 T02251005  RH  022%=      5-min Rain = 0
KAM1 182013Z 00011KT 23/M00 A2993 RMK A01 T02271002  RH  022%=      5-min Rain = 0
KAM1 182014Z 02010G15KT 23/M01 A2993 RMK A01 T02281008  RH  021%=      5-min Rain = 0
KAM1 182015Z 03007KT 23/M01 A2993 RMK A01 T02261009  RH  021%=      5-min Rain = 0
KAM1 182016Z 00006KT 23/M01 A2993 RMK A01 T02261007  RH  021%=      5-min Rain = 0
KAM1 182017Z 00010KT 23/M01 A2993 RMK A01 T02271007  RH  021%=      5-min Rain = 0
KAM1 182018Z 01011KT 23/M01 A2993 RMK A01 T02281014  RH  020%=      5-min Rain = 0
KAM1 182019Z 01009KT 23/M02 A2993 RMK A01 T02271015  RH  020%=      5-min Rain = 0
KAM1 182020Z 02010KT 23/M02 A2993 RMK A01 T02271016  RH  020%=      5-min Rain = 0
KAM1 182021Z 02010KT 23/M02 A2993 RMK A01 T02271021  RH  019%=      5-min Rain = 0
KAM1 182022Z 02009KT 23/M02 A2993 RMK A01 T02271022  RH  019%=      5-min Rain = 0
KAM1 182023Z 02010KT 23/M02 A2993 RMK A01 T02261024  RH  019%=      5-min Rain = 0
KAM1 182024Z 02010KT 23/M02 A2993 RMK A01 T02261021  RH  019%=      5-min Rain = 0
KAM1 182025Z 02009KT 23/M02 A2993 RMK A01 T02271023  RH  019%=      5-min Rain = 0
KAM1 182026Z 02008KT 23/M02 A2993 RMK A01 T02251023  RH  019%=      5-min Rain = 0
KAM1 182027Z 03010KT 22/M02 A2993 RMK A01 T02241019  RH  020%=      5-min Rain = 0
KAM1 182028Z 03010KT 23/M02 A2993 RMK A01 T02261018  RH  020%=      5-min Rain = 0
KAM1 182029Z 03011KT 23/M02 A2993 RMK A01 T02261017  RH  020%=      5-min Rain = 0
KAM1 182030Z 02010KT 23/M02 A2993 RMK A01 T02261018  RH  020%=      5-min Rain = 0
KAM1 182031Z 02008KT 23/M02 A2993 RMK A01 T02251020  RH  019%=      5-min Rain = 0
KAM1 182032Z 03010KT 22/M02 A2993 RMK A01 T02241021  RH  019%=      5-min Rain = 0
KAM1 182033Z 02010KT 23/M02 A2993 RMK A01 T02251019  RH  020%=      5-min Rain = 0
KAM1 182034Z 03008KT 23/M02 A2993 RMK A01 T02261019  RH  019%=      5-min Rain = 0
KAM1 182035Z 04008KT 23/M02 A2993 RMK A01 T02261018  RH  019%=      5-min Rain = 0
KAM1 182036Z 03008KT 23/M02 A2993 RMK A01 T02261018  RH  020%=      5-min Rain = 0
KAM1 182037Z 02008KT 23/M02 A2993 RMK A01 T02271019  RH  019%=      5-min Rain = 0
KAM1 182038Z 01008KT 23/M02 A2992 RMK A01 T02271021  RH  019%=      5-min Rain = 0
KAM1 182039Z 01011KT 23/M02 A2992 RMK A01 T02261018  RH  019%=      5-min Rain = 0
KAM1 182040Z 03009KT 23/M02 A2993 RMK A01 T02261017  RH  020%=      5-min Rain = 0
KAM1 182041Z 04008KT 23/M02 A2993 RMK A01 T02251016  RH  020%=      5-min Rain = 0
KAM1 182042Z 03009KT 23/M02 A2993 RMK A01 T02251017  RH  020%=      5-min Rain = 0
KAM1 182043Z 03008KT 22/M02 A2993 RMK A01 T02241018  RH  020%=      5-min Rain = 0
KAM1 182044Z 03007KT 23/M01 A2993 RMK A01 T02251013  RH  020%=      5-min Rain = 0
KAM1 182045Z 02009KT 23/M01 A2993 RMK A01 T02281014  RH  020%=      5-min Rain = 0
KAM1 182046Z 03008KT 23/M01 A2993 RMK A01 T02291012  RH  020%=      5-min Rain = 0
KAM1 182047Z 03010KT 23/M01 A2993 RMK A01 T02301013  RH  020%=      5-min Rain = 0
KAM1 182048Z 04009KT 23/M01 A2993 RMK A01 T02291013  RH  020%=      5-min Rain = 0
KAM1 182049Z 04009KT 23/M01 A2993 RMK A01 T02281012  RH  020%=      5-min Rain = 0
KAM1 182050Z 03009KT 23/M01 A2993 RMK A01 T02271012  RH  020%=      5-min Rain = 0
KAM1 182051Z 02007KT 23/M01 A2993 RMK A01 T02281011  RH  020%=      5-min Rain = 0
KAM1 182052Z 02010KT 23/M01 A2993 RMK A01 T02281011  RH  020%=      5-min Rain = 0
KAM1 182053Z 03011KT 23/M01 A2993 RMK A01 T02271012  RH  020%=      5-min Rain = 0
KAM1 182054Z 02009KT 23/M01 A2993 RMK A01 T02251011  RH  021%=      5-min Rain = 0
KAM1 182055Z 03008KT 23/M01 A2993 RMK A01 T02251008  RH  021%=      5-min Rain = 0
KAM1 182056Z 03006KT 23/M01 A2993 RMK A01 T02261010  RH  021%=      5-min Rain = 0
KAM1 182057Z 02006G11KT 22/M01 A2993 RMK A01 T02241011  RH  021%=      5-min Rain = 0
KAM1 182058Z 01007KT 22/M01 A2993 RMK A01 T02241010  RH  021%=      5-min Rain = 0
KAM1 182059Z 02006G11KT 22/M01 A2993 RMK A01 T02241007  RH  021%=      5-min Rain = 0
KAM1 182100Z 02010KT 23/M01 A2993 RMK A01 T02261008  RH  021%=      5-min Rain = 0
KAM1 182101Z 05009KT 23/M01 A2993 RMK A01 T02261009  RH  021%=      5-min Rain = 0
KAM1 182102Z 04009KT 23/M01 A2993 RMK A01 T02261011  RH  021%=      5-min Rain = 0
KAM1 182103Z 03009KT 23/M01 A2993 RMK A01 T02251009  RH  021%=      5-min Rain = 0
KAM1 182104Z 03009KT 23/M01 A2993 RMK A01 T02251009  RH  021%=      5-min Rain = 0
KAM1 182105Z 03008KT 23/M01 A2993 RMK A01 T02251011  RH  021%=      5-min Rain = 0
KAM1 182106Z 02006KT 22/M01 A2993 RMK A01 T02241011  RH  021%=      5-min Rain = 0
KAM1 182107Z 02006KT 22/M01 A2992 RMK A01 T02241009  RH  021%=      5-min Rain = 0
KAM1 182108Z 03007KT 22/M01 A2992 RMK A01 T02241011  RH  021%=      5-min Rain = 0
KAM1 182109Z 03010KT 22/M01 A2992 RMK A01 T02241011  RH  021%=      5-min Rain = 0
KAM1 182110Z 03011KT 23/M01 A2992 RMK A01 T02251014  RH  020%=      5-min Rain = 0
KAM1 182111Z 04010KT 23/M01 A2992 RMK A01 T02261013  RH  020%=      5-min Rain = 0
KAM1 182112Z 03011KT 23/M02 A2992 RMK A01 T02261015  RH  020%=      5-min Rain = 0
KAM1 182113Z 04009KT 23/M01 A2992 RMK A01 T02271013  RH  020%=      5-min Rain = 0
KAM1 182114Z 04009KT 23/M01 A2992 RMK A01 T02271012  RH  020%=      5-min Rain = 0
KAM1 182115Z 04010KT 23/M01 A2992 RMK A01 T02281013  RH  020%=      5-min Rain = 0
KAM1 182116Z 04013KT 23/M01 A2992 RMK A01 T02281013  RH  020%=      5-min Rain = 0
KAM1 182117Z 04011KT 23/M01 A2993 RMK A01 T02281013  RH  020%=      5-min Rain = 0
KAM1 182118Z 05009KT 23/M01 A2993 RMK A01 T02271012  RH  020%=      5-min Rain = 0
KAM1 182119Z 04008KT 23/M02 A2993 RMK A01 T02271016  RH  020%=      5-min Rain = 0
KAM1 182120Z 04008KT 23/M02 A2993 RMK A01 T02261015  RH  020%=      5-min Rain = 0
KAM1 182121Z 04008KT 23/M01 A2993 RMK A01 T02261012  RH  021%=      5-min Rain = 0
KAM1 182122Z 04009KT 23/M01 A2993 RMK A01 T02261012  RH  020%=      5-min Rain = 0
KAM1 182123Z 05008KT 23/M01 A2993 RMK A01 T02261013  RH  020%=      5-min Rain = 0
KAM1 182124Z 04011KT 23/M01 A2993 RMK A01 T02261012  RH  020%=      5-min Rain = 0
KAM1 182125Z 03008KT 23/M01 A2993 RMK A01 T02261012  RH  020%=      5-min Rain = 0
KAM1 182126Z 03007KT 23/M01 A2993 RMK A01 T02251014  RH  020%=      5-min Rain = 0
KAM1 182127Z 03008KT 22/M01 A2993 RMK A01 T02241014  RH  020%=      5-min Rain = 0
KAM1 182128Z 03009KT 22/M01 A2993 RMK A01 T02241014  RH  020%=      5-min Rain = 0
KAM1 182129Z 04008KT 22/M01 A2993 RMK A01 T02241014  RH  020%=      5-min Rain = 0
KAM1 182130Z 04009KT 22/M01 A2993 RMK A01 T02241014  RH  020%=      5-min Rain = 0
KAM1 182131Z 03010KT 22/M01 A2993 RMK A01 T02241013  RH  020%=      5-min Rain = 0
KAM1 182132Z 03009KT 23/M01 A2993 RMK A01 T02251013  RH  020%=      5-min Rain = 0
KAM1 182133Z 03010KT 23/M01 A2993 RMK A01 T02251013  RH  021%=      5-min Rain = 0
KAM1 182134Z 03008KT 22/M01 A2993 RMK A01 T02241012  RH  021%=      5-min Rain = 0
KAM1 182135Z 03008KT 22/M01 A2993 RMK A01 T02241013  RH  020%=      5-min Rain = 0
KAM1 182136Z 03008KT 22/M01 A2993 RMK A01 T02241013  RH  020%=      5-min Rain = 0
KAM1 182137Z 03007KT 22/M01 A2993 RMK A01 T02241012  RH  021%=      5-min Rain = 0
KAM1 182138Z 04008KT 23/M01 A2993 RMK A01 T02251011  RH  021%=      5-min Rain = 0
KAM1 182139Z 04010KT 23/M01 A2993 RMK A01 T02251012  RH  021%=      5-min Rain = 0
KAM1 182140Z 04010KT 23/M01 A2993 RMK A01 T02251013  RH  021%=      5-min Rain = 0
KAM1 182141Z 04009KT 22/M01 A2993 RMK A01 T02241013  RH  021%=      5-min Rain = 0
KAM1 182142Z 04008KT 22/M01 A2993 RMK A01 T02231013  RH  021%=      5-min Rain = 0
KAM1 182143Z 04008KT 22/M02 A2993 RMK A01 T02231015  RH  020%=      5-min Rain = 0
KAM1 182144Z 04009KT 22/M01 A2993 RMK A01 T02221013  RH  021%=      5-min Rain = 0
KAM1 182145Z 04009KT 22/M01 A2993 RMK A01 T02221013  RH  021%=      5-min Rain = 0
KAM1 182146Z 04008KT 22/M01 A2993 RMK A01 T02221013  RH  021%=      5-min Rain = 0
KAM1 182147Z 04008KT 22/M01 A2993 RMK A01 T02211013  RH  021%=      5-min Rain = 0
KAM1 182148Z 04009KT 22/M01 A2993 RMK A01 T02221014  RH  021%=      5-min Rain = 0
KAM1 182149Z 04006KT 22/M01 A2993 RMK A01 T02211013  RH  021%=      5-min Rain = 0
KAM1 182150Z 03008KT 22/M01 A2993 RMK A01 T02221012  RH  021%=      5-min Rain = 0
KAM1 182151Z 04010KT 22/M01 A2993 RMK A01 T02221013  RH  021%=      5-min Rain = 0
KAM1 182152Z 03008KT 22/M01 A2993 RMK A01 T02221012  RH  021%=      5-min Rain = 0
KAM1 182153Z 03009KT 22/M01 A2993 RMK A01 T02221010  RH  021%=      5-min Rain = 0
KAM1 182154Z 03010KT 22/M01 A2993 RMK A01 T02221011  RH  021%=      5-min Rain = 0
KAM1 182155Z 03008KT 22/M01 A2993 RMK A01 T02211012  RH  021%=      5-min Rain = 0
KAM1 182156Z 04008KT 22/M01 A2993 RMK A01 T02211011  RH  021%=      5-min Rain = 0
KAM1 182157Z 03006KT 22/M01 A2993 RMK A01 T02201012  RH  021%=      5-min Rain = 0
KAM1 182158Z 02008KT 22/M01 A2993 RMK A01 T02201011  RH  021%=      5-min Rain = 0
KAM1 182159Z 02007KT 22/M01 A2993 RMK A01 T02211011  RH  021%=      5-min Rain = 0
KAM1 182200Z 02008KT 22/M01 A2993 RMK A01 T02201014  RH  021%=      5-min Rain = 0
KAM1 182201Z 03009KT 22/M01 A2993 RMK A01 T02201014  RH  021%=      5-min Rain = 0
KAM1 182202Z 02008KT 22/M01 A2993 RMK A01 T02201013  RH  021%=      5-min Rain = 0
KAM1 182203Z 04008KT 22/M01 A2993 RMK A01 T02201011  RH  021%=      5-min Rain = 0
KAM1 182204Z 03009KT 22/M01 A2993 RMK A01 T02201011  RH  021%=      5-min Rain = 0
KAM1 182205Z 03008KT 22/M01 A2993 RMK A01 T02201011  RH  021%=      5-min Rain = 0
KAM1 182206Z 03007KT 22/M01 A2993 RMK A01 T02201011  RH  021%=      5-min Rain = 0
KAM1 182207Z 03007KT 22/M01 A2993 RMK A01 T02201008  RH  022%=      5-min Rain = 0
KAM1 182208Z 03008KT 22/M01 A2993 RMK A01 T02201008  RH  022%=      5-min Rain = 0
KAM1 182209Z 03008KT 22/M01 A2993 RMK A01 T02211008  RH  022%=      5-min Rain = 0
KAM1 182210Z 03008KT 22/M01 A2993 RMK A01 T02211009  RH  022%=      5-min Rain = 0
KAM1 182211Z 02007KT 22/M01 A2993 RMK A01 T02201010  RH  022%=      5-min Rain = 0
KAM1 182212Z 03005KT 22/M01 A2993 RMK A01 T02201009  RH  022%=      5-min Rain = 0
KAM1 182213Z 02008KT 22/M01 A2993 RMK A01 T02201008  RH  022%=      5-min Rain = 0
KAM1 182214Z 02007KT 22/M01 A2993 RMK A01 T02201010  RH  022%=      5-min Rain = 0
KAM1 182215Z 02006KT 22/M01 A2993 RMK A01 T02191010  RH  022%=      5-min Rain = 0
KAM1 182216Z 03009KT 22/M01 A2993 RMK A01 T02191008  RH  022%=      5-min Rain = 0
KAM1 182217Z 03008KT 22/M01 A2993 RMK A01 T02181008  RH  022%=      5-min Rain = 0
KAM1 182218Z 03008KT 22/M01 A2993 RMK A01 T02181009  RH  022%=      5-min Rain = 0
KAM1 182219Z 04010KT 22/M01 A2993 RMK A01 T02171008  RH  022%=      5-min Rain = 0
KAM1 182220Z 04008KT 22/M01 A2993 RMK A01 T02171008  RH  022%=      5-min Rain = 0
KAM1 182221Z 04007KT 22/M01 A2993 RMK A01 T02161007  RH  022%=      5-min Rain = 0
KAM1 182222Z 04005KT 22/M01 A2993 RMK A01 T02161005  RH  023%=      5-min Rain = 0
KAM1 182223Z 04007KT 22/M00 A2993 RMK A01 T02171004  RH  023%=      5-min Rain = 0
KAM1 182224Z 03006KT 22/M01 A2993 RMK A01 T02181006  RH  022%=      5-min Rain = 0
KAM1 182225Z 03004KT 22/M00 A2993 RMK A01 T02181003  RH  023%=      5-min Rain = 0
KAM1 182226Z 03007KT 22/M01 A2993 RMK A01 T02181005  RH  023%=      5-min Rain = 0
KAM1 182227Z 02007KT 22/M01 A2994 RMK A01 T02181006  RH  022%=      5-min Rain = 0
KAM1 182228Z 03006KT 22/M01 A2994 RMK A01 T02171007  RH  022%=      5-min Rain = 0
KAM1 182229Z 03007KT 22/M01 A2994 RMK A01 T02171007  RH  022%=      5-min Rain = 0
KAM1 182230Z 04006KT 22/M01 A2994 RMK A01 T02161008  RH  022%=      5-min Rain = 0
KAM1 182231Z 05005KT 22/M01 A2994 RMK A01 T02161006  RH  023%=      5-min Rain = 0
KAM1 182232Z 05005KT 22/M01 A2994 RMK A01 T02171005  RH  023%=      5-min Rain = 0
KAM1 182233Z 05007KT 22/M00 A2994 RMK A01 T02161004  RH  023%=      5-min Rain = 0
KAM1 182234Z 06006KT 22/M01 A2994 RMK A01 T02161006  RH  023%=      5-min Rain = 0
KAM1 182235Z 06005KT 22/M01 A2994 RMK A01 T02151005  RH  023%=      5-min Rain = 0
KAM1 182236Z 06004KT 22/M00 A2994 RMK A01 T02151004  RH  023%=      5-min Rain = 0
KAM1 182237Z 05006KT 22/M00 A2994 RMK A01 T02151004  RH  023%=      5-min Rain = 0
KAM1 182238Z 05007KT 22/M00 A2994 RMK A01 T02151004  RH  023%=      5-min Rain = 0
KAM1 182239Z 06009KT 21/M00 A2994 RMK A01 T02141004  RH  023%=      5-min Rain = 0
KAM1 182240Z 05009KT 21/M01 A2994 RMK A01 T02131005  RH  023%=      5-min Rain = 0
KAM1 182241Z 06008KT 21/M00 A2994 RMK A01 T02121004  RH  024%=      5-min Rain = 0
KAM1 182242Z 06008KT 21/M00 A2994 RMK A01 T02111004  RH  024%=      5-min Rain = 0
KAM1 182243Z 06008KT 21/M01 A2994 RMK A01 T02111006  RH  023%=      5-min Rain = 0
KAM1 182244Z 06009KT 21/M01 A2994 RMK A01 T02101006  RH  023%=      5-min Rain = 0
KAM1 182245Z 06008KT 21/M01 A2994 RMK A01 T02101006  RH  024%=      5-min Rain = 0
KAM1 182246Z 06007KT 21/M01 A2994 RMK A01 T02091006  RH  024%=      5-min Rain = 0
KAM1 182247Z 06007KT 21/M01 A2994 RMK A01 T02091005  RH  024%=      5-min Rain = 0
KAM1 182248Z 06007KT 21/M01 A2994 RMK A01 T02091005  RH  024%=      5-min Rain = 0
KAM1 182249Z 06006KT 21/M00 A2994 RMK A01 T02091004  RH  024%=      5-min Rain = 0
KAM1 182250Z 05007KT 21/M01 A2994 RMK A01 T02081005  RH  024%=      5-min Rain = 0
KAM1 182251Z 06006KT 21/M00 A2994 RMK A01 T02081004  RH  024%=      5-min Rain = 0
KAM1 182252Z 06005KT 21/M00 A2994 RMK A01 T02071003  RH  024%=      5-min Rain = 0
KAM1 182253Z 06005KT 21/M00 A2994 RMK A01 T02071003  RH  025%=      5-min Rain = 0
KAM1 182254Z 06006KT 21/M00 A2994 RMK A01 T02061003  RH  025%=      5-min Rain = 0
KAM1 182255Z 05006KT 21/M00 A2994 RMK A01 T02051003  RH  025%=      5-min Rain = 0
KAM1 182256Z 05007KT 20/M00 A2994 RMK A01 T02041004  RH  025%=      5-min Rain = 0
KAM1 182257Z 05007KT 20/M00 A2994 RMK A01 T02041003  RH  025%=      5-min Rain = 0
KAM1 182258Z 06006KT 20/M00 A2994 RMK A01 T02031004  RH  025%=      5-min Rain = 0
KAM1 182259Z 06007KT 20/M00 A2994 RMK A01 T02021003  RH  025%=      5-min Rain = 0
KAM1 182300Z 06006KT 20/M00 A2994 RMK A01 T02011003  RH  025%=      5-min Rain = 0
KAM1 182301Z 06007KT 20/M00 A2994 RMK A01 T02011004  RH  025%=      5-min Rain = 0
KAM1 182302Z 06006KT 20/M00 A2994 RMK A01 T02001004  RH  025%=      5-min Rain = 0
KAM1 182303Z 06006KT 20/M00 A2994 RMK A01 T01991004  RH  026%=      5-min Rain = 0
KAM1 182304Z 06006KT 20/M00 A2994 RMK A01 T01991004  RH  026%=      5-min Rain = 0
KAM1 182305Z 07006KT 20/M00 A2994 RMK A01 T01981004  RH  026%=      5-min Rain = 0
KAM1 182306Z 07006KT 20/M00 A2994 RMK A01 T01971003  RH  026%=      5-min Rain = 0
KAM1 182307Z 07005KT 20/M00 A2995 RMK A01 T01961003  RH  026%=      5-min Rain = 0
KAM1 182308Z 07005KT 20/M00 A2995 RMK A01 T01951003  RH  026%=      5-min Rain = 0
KAM1 182309Z 07005KT 19/M00 A2995 RMK A01 T01941004  RH  026%=      5-min Rain = 0
KAM1 182310Z 07005KT 19/M00 A2995 RMK A01 T01931003  RH  027%=      5-min Rain = 0
KAM1 182311Z 06004KT 19/M00 A2995 RMK A01 T01911003  RH  027%=      5-min Rain = 0
KAM1 182312Z 06004KT 19/M00 A2995 RMK A01 T01901004  RH  027%=      5-min Rain = 0
KAM1 182313Z 06005KT 19/M00 A2995 RMK A01 T01881004  RH  027%=      5-min Rain = 0
KAM1 182314Z 06005KT 19/M00 A2995 RMK A01 T01871004  RH  028%=      5-min Rain = 0
KAM1 182315Z 06005KT 19/M00 A2995 RMK A01 T01861004  RH  028%=      5-min Rain = 0
KAM1 182316Z 06005KT 18/M01 A2995 RMK A01 T01841005  RH  028%=      5-min Rain = 0
KAM1 182317Z 05005KT 18/M01 A2995 RMK A01 T01821005  RH  028%=      5-min Rain = 0
KAM1 182318Z 05005KT 18/M01 A2995 RMK A01 T01811005  RH  028%=      5-min Rain = 0
KAM1 182319Z 05005KT 18/M01 A2995 RMK A01 T01791006  RH  029%=      5-min Rain = 0
KAM1 182320Z 06005KT 18/M01 A2995 RMK A01 T01771007  RH  029%=      5-min Rain = 0
KAM1 182321Z 06005KT 18/M01 A2995 RMK A01 T01761006  RH  029%=      5-min Rain = 0
KAM1 182322Z 06005KT 18/M01 A2995 RMK A01 T01751006  RH  029%=      5-min Rain = 0
KAM1 182323Z 06005KT 17/M01 A2995 RMK A01 T01741006  RH  029%=      5-min Rain = 0
KAM1 182324Z 06005KT 17/M01 A2995 RMK A01 T01721007  RH  030%=      5-min Rain = 0
KAM1 182325Z 06004KT 17/M01 A2995 RMK A01 T01711007  RH  030%=      5-min Rain = 0
KAM1 182326Z 06004KT 17/M01 A2995 RMK A01 T01701006  RH  030%=      5-min Rain = 0
KAM1 182327Z 06003KT 17/M01 A2995 RMK A01 T01691007  RH  030%=      5-min Rain = 0
KAM1 182328Z 06003KT 17/M01 A2995 RMK A01 T01691007  RH  030%=      5-min Rain = 0
KAM1 182329Z 06003KT 17/M01 A2995 RMK A01 T01671007  RH  031%=      5-min Rain = 0
KAM1 182330Z 06003KT 17/M01 A2995 RMK A01 T01671006  RH  031%=      5-min Rain = 0
KAM1 182331Z 06003KT 17/M01 A2995 RMK A01 T01661006  RH  031%=      5-min Rain = 0
KAM1 182332Z 06003KT 17/M01 A2995 RMK A01 T01651007  RH  031%=      5-min Rain = 0
KAM1 182333Z 06004KT 17/M01 A2995 RMK A01 T01651006  RH  031%=      5-min Rain = 0
KAM1 182334Z 06004KT 16/M01 A2995 RMK A01 T01641006  RH  031%=      5-min Rain = 0
KAM1 182335Z 06004KT 16/M01 A2996 RMK A01 T01631006  RH  032%=      5-min Rain = 0
KAM1 182336Z 06004KT 16/M01 A2996 RMK A01 T01611006  RH  032%=      5-min Rain = 0
KAM1 182337Z 06004KT 16/M01 A2996 RMK A01 T01601006  RH  032%=      5-min Rain = 0
KAM1 182338Z 06005KT 16/M01 A2996 RMK A01 T01591006  RH  032%=      5-min Rain = 0
KAM1 182339Z 06005KT 16/M01 A2996 RMK A01 T01581006  RH  033%=      5-min Rain = 0
KAM1 182340Z 06005KT 16/M01 A2996 RMK A01 T01571005  RH  033%=      5-min Rain = 0
KAM1 182341Z 06005KT 16/M01 A2996 RMK A01 T01561005  RH  033%=      5-min Rain = 0
KAM1 182342Z 06005KT 16/M01 A2996 RMK A01 T01561006  RH  033%=      5-min Rain = 0
KAM1 182343Z 06006KT 16/M01 A2996 RMK A01 T01551006  RH  033%=      5-min Rain = 0
KAM1 182344Z 06006KT 15/M01 A2996 RMK A01 T01541006  RH  033%=      5-min Rain = 0
KAM1 182345Z 06006KT 15/M01 A2996 RMK A01 T01531008  RH  033%=      5-min Rain = 0
KAM1 182346Z 06006KT 15/M01 A2996 RMK A01 T01511009  RH  033%=      5-min Rain = 0
KAM1 182347Z 05006KT 15/M01 A2996 RMK A01 T01471011  RH  034%=      5-min Rain = 0
KAM1 182348Z 05006KT 14/M01 A2996 RMK A01 T01441012  RH  034%=      5-min Rain = 0
KAM1 182349Z 05006KT 14/M01 A2996 RMK A01 T01401013  RH  035%=      5-min Rain = 0
KAM1 182350Z 05006KT 14/M01 A2996 RMK A01 T01361014  RH  035%=      5-min Rain = 0
KAM1 182351Z 05006KT 13/M02 A2996 RMK A01 T01321015  RH  036%=      5-min Rain = 0
KAM1 182352Z 05006KT 13/M01 A2996 RMK A01 T01301014  RH  037%=      5-min Rain = 0
KAM1 182353Z 05006KT 13/M01 A2996 RMK A01 T01291013  RH  037%=      5-min Rain = 0
KAM1 182354Z 05006KT 13/M01 A2996 RMK A01 T01291012  RH  038%=      5-min Rain = 0
KAM1 182355Z 05007KT 13/M01 A2996 RMK A01 T01281012  RH  038%=      5-min Rain = 0
KAM1 182356Z 05007KT 13/M01 A2996 RMK A01 T01271012  RH  038%=      5-min Rain = 0
KAM1 182357Z 05007KT 13/M01 A2996 RMK A01 T01261012  RH  038%=      5-min Rain = 0
KAM1 182358Z 06007KT 13/M01 A2996 RMK A01 T01251012  RH  039%=      5-min Rain = 0
KAM1 182359Z 06007KT 13/M01 A2996 RMK A01 T01251012  RH  039%=      5-min Rain = 0
KAM1 190000Z 06007KT 12/M01 A2997 RMK A01 T01241012  RH  039%=      5-min Rain = 0
KAM1 190001Z 06007KT 12/M01 A2997 RMK A01 T01241011  RH  039%=      5-min Rain = 0
KAM1 190002Z 06007KT 12/M01 A2997 RMK A01 T01231012  RH  039%=      5-min Rain = 0
KAM1 190003Z 06007KT 12/M01 A2997 RMK A01 T01231012  RH  039%=      5-min Rain = 0
KAM1 190004Z 06007KT 12/M01 A2997 RMK A01 T01221012  RH  039%=      5-min Rain = 0
KAM1 190005Z 06007KT 12/M01 A2997 RMK A01 T01221013  RH  039%=      5-min Rain = 0
KAM1 190006Z 06007KT 12/M01 A2997 RMK A01 T01211013  RH  040%=      5-min Rain = 0
KAM1 190007Z 06007KT 12/M01 A2997 RMK A01 T01201013  RH  040%=      5-min Rain = 0
KAM1 190008Z 06007KT 12/M01 A2997 RMK A01 T01191013  RH  040%=      5-min Rain = 0
KAM1 190009Z 06007KT 12/M01 A2997 RMK A01 T01191013  RH  040%=      5-min Rain = 0
KAM1 190010Z 06007KT 12/M01 A2997 RMK A01 T01171014  RH  040%=      5-min Rain = 0
KAM1 190011Z 06007KT 12/M01 A2997 RMK A01 T01161014  RH  040%=      5-min Rain = 0
KAM1 190012Z 05007KT 11/M01 A2997 RMK A01 T01141014  RH  041%=      5-min Rain = 0
KAM1 190013Z 06006KT 11/M01 A2997 RMK A01 T01131014  RH  041%=      5-min Rain = 0
KAM1 190014Z 06007KT 11/M01 A2997 RMK A01 T01131014  RH  041%=      5-min Rain = 0
KAM1 190015Z 06007KT 11/M01 A2997 RMK A01 T01121014  RH  042%=      5-min Rain = 0
KAM1 190016Z 06006KT 11/M01 A2997 RMK A01 T01121014  RH  042%=      5-min Rain = 0
KAM1 190017Z 06006KT 11/M01 A2997 RMK A01 T01111013  RH  042%=      5-min Rain = 0
KAM1 190018Z 06006KT 11/M01 A2997 RMK A01 T01111013  RH  042%=      5-min Rain = 0
KAM1 190019Z 06006KT 11/M01 A2998 RMK A01 T01111013  RH  042%=      5-min Rain = 0
KAM1 190020Z 06006KT 11/M01 A2998 RMK A01 T01111013  RH  042%=      5-min Rain = 0
KAM1 190021Z 06007KT 11/M01 A2998 RMK A01 T01111013  RH  042%=      5-min Rain = 0
KAM1 190022Z 06007KT 11/M01 A2998 RMK A01 T01111012  RH  042%=      5-min Rain = 0
KAM1 190023Z 06007KT 11/M01 A2998 RMK A01 T01121012  RH  042%=      5-min Rain = 0
KAM1 190024Z 06007KT 11/M01 A2998 RMK A01 T01121012  RH  042%=      5-min Rain = 0
KAM1 190025Z 06007KT 11/M01 A2998 RMK A01 T01121012  RH  042%=      5-min Rain = 0
KAM1 190026Z 06006KT 11/M01 A2998 RMK A01 T01111012  RH  042%=      5-min Rain = 0
KAM1 190027Z 06007KT 11/M01 A2998 RMK A01 T01111012  RH  042%=      5-min Rain = 0
KAM1 190028Z 06007KT 11/M01 A2998 RMK A01 T01111012  RH  042%=      5-min Rain = 0
KAM1 190029Z 06007KT 11/M01 A2998 RMK A01 T01101013  RH  042%=      5-min Rain = 0
KAM1 190030Z 06007KT 11/M01 A2998 RMK A01 T01091013  RH  043%=      5-min Rain = 0
KAM1 190031Z 06007KT 11/M02 A2998 RMK A01 T01061015  RH  043%=      5-min Rain = 0
KAM1 190032Z 06007KT 10/M02 A2998 RMK A01 T01041016  RH  043%=      5-min Rain = 0
KAM1 190033Z 06006KT 10/M02 A2998 RMK A01 T01021016  RH  043%=      5-min Rain = 0
KAM1 190034Z 05006KT 10/M02 A2998 RMK A01 T01011016  RH  044%=      5-min Rain = 0
KAM1 190035Z 06006KT 10/M02 A2998 RMK A01 T01001015  RH  045%=      5-min Rain = 0
KAM1 190036Z 06006KT 10/M01 A2998 RMK A01 T01001014  RH  045%=      5-min Rain = 0
KAM1 190037Z 06006KT 10/M01 A2998 RMK A01 T01001014  RH  045%=      5-min Rain = 0
KAM1 190038Z 06007KT 10/M01 A2998 RMK A01 T01011013  RH  045%=      5-min Rain = 0
KAM1 190039Z 06007KT 10/M01 A2998 RMK A01 T01021013  RH  045%=      5-min Rain = 0
KAM1 190040Z 06007KT 10/M01 A2998 RMK A01 T01021013  RH  045%=      5-min Rain = 0
KAM1 190041Z 06006KT 10/M01 A2998 RMK A01 T01031012  RH  045%=      5-min Rain = 0
KAM1 190042Z 07006KT 10/M01 A2999 RMK A01 T01041012  RH  044%=      5-min Rain = 0
KAM1 190043Z 08005KT 10/M01 A2999 RMK A01 T01041013  RH  044%=      5-min Rain = 0
KAM1 190044Z 07006KT 10/M01 A2999 RMK A01 T01031012  RH  044%=      5-min Rain = 0
KAM1 190045Z 08006KT 10/M01 A2999 RMK A01 T01041013  RH  044%=      5-min Rain = 0
KAM1 190046Z 07006KT 10/M01 A2999 RMK A01 T01041014  RH  044%=      5-min Rain = 0
KAM1 190047Z 07006KT 10/M01 A2999 RMK A01 T01041014  RH  044%=      5-min Rain = 0
KAM1 190048Z 07006KT 10/M01 A2999 RMK A01 T01041013  RH  044%=      5-min Rain = 0
KAM1 190049Z 06007KT 11/M01 A2999 RMK A01 T01051011  RH  044%=      5-min Rain = 0
KAM1 190050Z 06007KT 11/M01 A2999 RMK A01 T01061010  RH  044%=      5-min Rain = 0
KAM1 190051Z 06007KT 11/M01 A2999 RMK A01 T01071011  RH  044%=      5-min Rain = 0
KAM1 190052Z 07007KT 11/M01 A2999 RMK A01 T01071011  RH  044%=      5-min Rain = 0
KAM1 190053Z 07008KT 11/M01 A2999 RMK A01 T01061011  RH  044%=      5-min Rain = 0
KAM1 190054Z 06008KT 11/M01 A2999 RMK A01 T01061011  RH  044%=      5-min Rain = 0
KAM1 190055Z 06008KT 11/M01 A2999 RMK A01 T01051012  RH  044%=      5-min Rain = 0
KAM1 190056Z 06008KT 11/M01 A2999 RMK A01 T01051011  RH  045%=      5-min Rain = 0
KAM1 190057Z 06009KT 11/M01 A2999 RMK A01 T01051010  RH  045%=      5-min Rain = 0
KAM1 190058Z 06009KT 11/M01 A2999 RMK A01 T01051008  RH  045%=      5-min Rain = 0
KAM1 190059Z 06009KT 11/M01 A2999 RMK A01 T01071006  RH  046%=      5-min Rain = 0
KAM1 190100Z 06009KT 11/M01 A2999 RMK A01 T01081005  RH  046%=      5-min Rain = 0
KAM1 190101Z 06009KT 11/M00 A2999 RMK A01 T01101004  RH  045%=      5-min Rain = 0
KAM1 190102Z 06009KT 11/M00 A2999 RMK A01 T01111003  RH  045%=      5-min Rain = 0
KAM1 190103Z 06009KT 11/M00 A2999 RMK A01 T01131003  RH  045%=      5-min Rain = 0
KAM1 190104Z 06008KT 11/M00 A2999 RMK A01 T01141002  RH  045%=      5-min Rain = 0
KAM1 190105Z 05008KT 12/M00 A2999 RMK A01 T01151002  RH  044%=      5-min Rain = 0
KAM1 190106Z 05008KT 12/M00 A2999 RMK A01 T01161002  RH  044%=      5-min Rain = 0
KAM1 190107Z 05008KT 12/M00 A2999 RMK A01 T01161002  RH  044%=      5-min Rain = 0
KAM1 190108Z 05008KT 12/M00 A2999 RMK A01 T01161003  RH  044%=      5-min Rain = 0
KAM1 190109Z 05008KT 11/M00 A2999 RMK A01 T01141004  RH  044%=      5-min Rain = 0
KAM1 190110Z 05009KT 11/M01 A2999 RMK A01 T01131005  RH  044%=      5-min Rain = 0
KAM1 190111Z 05009KT 11/M01 A2999 RMK A01 T01111006  RH  044%=      5-min Rain = 0
KAM1 190112Z 05009KT 11/M01 A2999 RMK A01 T01111006  RH  045%=      5-min Rain = 0
KAM1 190113Z 06009KT 11/M01 A2999 RMK A01 T01101006  RH  045%=      5-min Rain = 0
KAM1 190114Z 06009KT 11/M01 A2999 RMK A01 T01091006  RH  045%=      5-min Rain = 0
KAM1 190115Z 06009KT 11/M01 A2999 RMK A01 T01091005  RH  045%=      5-min Rain = 0
KAM1 190116Z 06010KT 11/M01 A2999 RMK A01 T01091005  RH  045%=      5-min Rain = 0
KAM1 190117Z 07010KT 11/M00 A2999 RMK A01 T01101004  RH  045%=      5-min Rain = 0
KAM1 190118Z 07010KT 11/M00 A2999 RMK A01 T01131003  RH  045%=      5-min Rain = 0
KAM1 190119Z 07010KT 11/M00 A2999 RMK A01 T01141002  RH  045%=      5-min Rain = 0
KAM1 190120Z 07010KT 12/M00 A2999 RMK A01 T01161002  RH  044%=      5-min Rain = 0
KAM1 190121Z 07010KT 12/M00 A2999 RMK A01 T01181001  RH  044%=      5-min Rain = 0
KAM1 190122Z 07010KT 12/M00 A2999 RMK A01 T01191001  RH  044%=      5-min Rain = 0
KAM1 190123Z 07009KT 12/M00 A2999 RMK A01 T01191001  RH  043%=      5-min Rain = 0
KAM1 190124Z 07009KT 12/M00 A2999 RMK A01 T01201001  RH  043%=      5-min Rain = 0
KAM1 190125Z 06009KT 12/M00 A2999 RMK A01 T01201002  RH  043%=      5-min Rain = 0
KAM1 190126Z 06008KT 12/M00 A2999 RMK A01 T01191002  RH  043%=      5-min Rain = 0
KAM1 190127Z 06008KT 12/M00 A2999 RMK A01 T01181003  RH  043%=      5-min Rain = 0
KAM1 190128Z 06008KT 12/M00 A2999 RMK A01 T01161003  RH  044%=      5-min Rain = 0
KAM1 190129Z 06008KT 11/M00 A2999 RMK A01 T01141004  RH  044%=      5-min Rain = 0
KAM1 190130Z 06008KT 11/M00 A2999 RMK A01 T01121004  RH  044%=      5-min Rain = 0
KAM1 190131Z 06008KT 11/M01 A2999 RMK A01 T01111005  RH  045%=      5-min Rain = 0
KAM1 190132Z 07008KT 11/M00 A2999 RMK A01 T01101004  RH  045%=      5-min Rain = 0
KAM1 190133Z 07009KT 11/M01 A2999 RMK A01 T01101005  RH  045%=      5-min Rain = 0
KAM1 190134Z 07009KT 11/M01 A2999 RMK A01 T01091005  RH  045%=      5-min Rain = 0
KAM1 190135Z 07009KT 11/M00 A2999 RMK A01 T01081004  RH  046%=      5-min Rain = 0
KAM1 190136Z 07009KT 11/M00 A2999 RMK A01 T01081004  RH  046%=      5-min Rain = 0
KAM1 190137Z 07009KT 11/M00 A2999 RMK A01 T01081004  RH  046%=      5-min Rain = 0
KAM1 190138Z 07009KT 11/M00 A2999 RMK A01 T01081004  RH  046%=      5-min Rain = 0
KAM1 190139Z 07009KT 11/M00 A2999 RMK A01 T01081004  RH  046%=      5-min Rain = 0
KAM1 190140Z 07009KT 11/M00 A2999 RMK A01 T01081003  RH  046%=      5-min Rain = 0
KAM1 190141Z 07008KT 11/M00 A2999 RMK A01 T01081003  RH  046%=      5-min Rain = 0
KAM1 190142Z 07009KT 11/M00 A2999 RMK A01 T01081003  RH  046%=      5-min Rain = 0
KAM1 190143Z 07008KT 11/M00 A2999 RMK A01 T01071004  RH  046%=      5-min Rain = 0
KAM1 190144Z 07008KT 11/M00 A2999 RMK A01 T01081004  RH  046%=      5-min Rain = 0
KAM1 190145Z 07008KT 11/M00 A2999 RMK A01 T01081004  RH  046%=      5-min Rain = 0
KAM1 190146Z 07009KT 11/M00 A2999 RMK A01 T01071004  RH  046%=      5-min Rain = 0
KAM1 190147Z 07008KT 11/M00 A2999 RMK A01 T01071004  RH  046%=      5-min Rain = 0
KAM1 190148Z 07008KT 11/M00 A2998 RMK A01 T01061004  RH  046%=      5-min Rain = 0
KAM1 190149Z 07009KT 11/M00 A2998 RMK A01 T01061004  RH  046%=      5-min Rain = 0
KAM1 190150Z 07009KT 11/M01 A2998 RMK A01 T01051005  RH  047%=      5-min Rain = 0
KAM1 190151Z 08009KT 10/M01 A2998 RMK A01 T01041005  RH  047%=      5-min Rain = 0
KAM1 190152Z 08009KT 10/M01 A2998 RMK A01 T01031005  RH  047%=      5-min Rain = 0
KAM1 190153Z 08009KT 10/M01 A2998 RMK A01 T01031005  RH  047%=      5-min Rain = 0
KAM1 190154Z 08009KT 10/M01 A2998 RMK A01 T01021006  RH  047%=      5-min Rain = 0
KAM1 190155Z 08008KT 10/M01 A2998 RMK A01 T01011005  RH  048%=      5-min Rain = 0
KAM1 190156Z 08008KT 10/M01 A2998 RMK A01 T01011005  RH  048%=      5-min Rain = 0
KAM1 190157Z 07008KT 10/M01 A2998 RMK A01 T01011005  RH  048%=      5-min Rain = 0
KAM1 190158Z 07007KT 10/M01 A2998 RMK A01 T01011005  RH  048%=      5-min Rain = 0
KAM1 190159Z 07007KT 10/M00 A2998 RMK A01 T01021004  RH  048%=      5-min Rain = 0
KAM1 190200Z 08007KT 10/M00 A2998 RMK A01 T01021004  RH  048%=      5-min Rain = 0
KAM1 190201Z 08007KT 10/M00 A2998 RMK A01 T01011004  RH  048%=      5-min Rain = 0
KAM1 190202Z 08007KT 10/M01 A2998 RMK A01 T01011005  RH  048%=      5-min Rain = 0
KAM1 190203Z 08006KT 10/M01 A2998 RMK A01 T01001005  RH  048%=      5-min Rain = 0
KAM1 190204Z 09006KT 10/M01 A2998 RMK A01 T00991005  RH  048%=      5-min Rain = 0
KAM1 190205Z 09006KT 10/M01 A2999 RMK A01 T00991005  RH  048%=      5-min Rain = 0
KAM1 190206Z 09005KT 10/M01 A2999 RMK A01 T00981005  RH  049%=      5-min Rain = 0
KAM1 190207Z 09005KT 10/M01 A2999 RMK A01 T00971005  RH  049%=      5-min Rain = 0
KAM1 190208Z 09004KT 10/M01 A2999 RMK A01 T00961005  RH  049%=      5-min Rain = 0
KAM1 190209Z 09004KT 09/M01 A2999 RMK A01 T00941006  RH  050%=      5-min Rain = 0
KAM1 190210Z 09004KT 09/M01 A2999 RMK A01 T00921006  RH  050%=      5-min Rain = 0
KAM1 190211Z 09004KT 09/M01 A2999 RMK A01 T00911006  RH  051%=      5-min Rain = 0
KAM1 190212Z 09004KT 09/M01 A2999 RMK A01 T00911005  RH  051%=      5-min Rain = 0
KAM1 190213Z 08004KT 09/M00 A2999 RMK A01 T00911004  RH  051%=      5-min Rain = 0
KAM1 190214Z 08005KT 09/M00 A2999 RMK A01 T00911004  RH  051%=      5-min Rain = 0
KAM1 190215Z 08005KT 09/M00 A2999 RMK A01 T00911004  RH  051%=      5-min Rain = 0
KAM1 190216Z 09005KT 09/M00 A2999 RMK A01 T00911004  RH  051%=      5-min Rain = 0
KAM1 190217Z 09004KT 09/M00 A2999 RMK A01 T00911004  RH  052%=      5-min Rain = 0
KAM1 190218Z 10004KT 09/M00 A2999 RMK A01 T00911004  RH  051%=      5-min Rain = 0
KAM1 190219Z 12003KT 09/M01 A2999 RMK A01 T00901005  RH  051%=      5-min Rain = 0
KAM1 190220Z 14004KT 09/M01 A2999 RMK A01 T00891006  RH  052%=      5-min Rain = 0
KAM1 190221Z 13004KT 09/M01 A2999 RMK A01 T00881005  RH  052%=      5-min Rain = 0
KAM1 190222Z 13003KT 09/M01 A2999 RMK A01 T00881005  RH  052%=      5-min Rain = 0
KAM1 190223Z 15003KT 09/M01 A2999 RMK A01 T00881006  RH  052%=      5-min Rain = 0
KAM1 190224Z 14002KT 09/M01 A2999 RMK A01 T00851009  RH  051%=      5-min Rain = 0
KAM1 190225Z 13002KT 08/M01 A2999 RMK A01 T00831011  RH  052%=      5-min Rain = 0
KAM1 190226Z 13002KT 08/M01 A2999 RMK A01 T00811011  RH  052%=      5-min Rain = 0
KAM1 190227Z 13002KT 08/M01 A2999 RMK A01 T00791013  RH  052%=      5-min Rain = 0
KAM1 190228Z 12003KT 08/M01 A2999 RMK A01 T00771014  RH  053%=      5-min Rain = 0
KAM1 190229Z 12003KT 08/M01 A2999 RMK A01 T00761013  RH  053%=      5-min Rain = 0
KAM1 190230Z 12003KT 08/M01 A2999 RMK A01 T00761014  RH  053%=      5-min Rain = 0
KAM1 190231Z 12002KT 08/M02 A2999 RMK A01 T00751015  RH  053%=      5-min Rain = 0
KAM1 190232Z 12002KT 07/M02 A2999 RMK A01 T00731016  RH  053%=      5-min Rain = 0
KAM1 190233Z 13002KT 07/M02 A2999 RMK A01 T00711018  RH  053%=      5-min Rain = 0
KAM1 190234Z 13002KT 07/M02 A2999 RMK A01 T00681019  RH  054%=      5-min Rain = 0
KAM1 190235Z 14002KT 07/M02 A2999 RMK A01 T00651019  RH  055%=      5-min Rain = 0
KAM1 190236Z 13003KT 06/M02 A2999 RMK A01 T00621019  RH  056%=      5-min Rain = 0
KAM1 190237Z 13003KT 06/M02 A2999 RMK A01 T00601017  RH  058%=      5-min Rain = 0
KAM1 190238Z 13002KT 06/M02 A2999 RMK A01 T00601016  RH  058%=      5-min Rain = 0
KAM1 190239Z 13002KT 06/M02 A2999 RMK A01 T00591015  RH  059%=      5-min Rain = 0
KAM1 190240Z 14003KT 06/M01 A2999 RMK A01 T00601014  RH  059%=      5-min Rain = 0
KAM1 190241Z 15004KT 06/M01 A2999 RMK A01 T00631011  RH  059%=      5-min Rain = 0
KAM1 190242Z 16005KT 07/M01 A2999 RMK A01 T00671009  RH  058%=      5-min Rain = 0
KAM1 190243Z 17005KT 07/M01 A2999 RMK A01 T00711010  RH  056%=      5-min Rain = 0
KAM1 190244Z 17005KT 07/M01 A2999 RMK A01 T00721013  RH  055%=      5-min Rain = 0
KAM1 190245Z 17005KT 07/M02 A2999 RMK A01 T00711015  RH  054%=      5-min Rain = 0
KAM1 190246Z 16005KT 07/M02 A2999 RMK A01 T00701016  RH  054%=      5-min Rain = 0
KAM1 190247Z 17005KT 07/M02 A2999 RMK A01 T00681016  RH  055%=      5-min Rain = 0
KAM1 190248Z 17005KT 07/M01 A30 RMK A01 T00681014  RH  056%=      5-min Rain = 0
KAM1 190249Z 17005KT 07/M02 A30 RMK A01 T00681015  RH  055%=      5-min Rain = 0
KAM1 190250Z 18004KT 07/M02 A30 RMK A01 T00651017  RH  056%=      5-min Rain = 0
KAM1 190251Z 18003KT 06/M02 A30 RMK A01 T00611019  RH  056%=      5-min Rain = 0
KAM1 190252Z 19001KT 06/M02 A30 RMK A01 T00561020  RH  058%=      5-min Rain = 0
KAM1 190253Z 20001KT 05/M02 A30 RMK A01 T00541017  RH  060%=      5-min Rain = 0
KAM1 190254Z 19001KT 05/M02 A30 RMK A01 T00521016  RH  061%=      5-min Rain = 0
KAM1 190255Z 17001KT 05/M01 A30 RMK A01 T00521014  RH  062%=      5-min Rain = 0
KAM1 190256Z 18001KT 05/M01 A30 RMK A01 T00541011  RH  063%=      5-min Rain = 0
KAM1 190257Z 24001KT 06/M01 A30 RMK A01 T00601006  RH  062%=      5-min Rain = 0
KAM1 190258Z 17000KT 07/M01 A30 RMK A01 T00671006  RH  060%=      5-min Rain = 0
KAM1 190259Z 19000KT 07/M01 A30 RMK A01 T00681009  RH  058%=      5-min Rain = 0
KAM1 190300Z 00000KT 07/M01 A30 RMK A01 T00671011  RH  058%=      5-min Rain = 0
KAM1 190301Z 00000KT 07/M01 A30 RMK A01 T00671010  RH  058%=      5-min Rain = 0
KAM1 190302Z 16001KT 07/M01 A30 RMK A01 T00711005  RH  058%=      5-min Rain = 0
KAM1 190303Z 16001KT 08/M00 A30 RMK A01 T00771002  RH  057%=      5-min Rain = 0
KAM1 190304Z 17002KT 08/M00 A30 RMK A01 T00811003  RH  055%=      5-min Rain = 0
KAM1 190305Z 17004KT 08/M00 A30 RMK A01 T00831003  RH  054%=      5-min Rain = 0
KAM1 190306Z 17005KT 09/M00 A30 RMK A01 T00861004  RH  053%=      5-min Rain = 0
KAM1 190307Z 17005KT 09/M01 A30 RMK A01 T00881005  RH  052%=      5-min Rain = 0
KAM1 190308Z 17005KT 09/M01 A30 RMK A01 T00901006  RH  051%=      5-min Rain = 0
KAM1 190309Z 17006KT 09/M01 A30 RMK A01 T00901008  RH  050%=      5-min Rain = 0
KAM1 190310Z 17006KT 09/M01 A30 RMK A01 T00871010  RH  050%=      5-min Rain = 0
KAM1 190311Z 17006KT 09/M01 A30 RMK A01 T00851011  RH  051%=      5-min Rain = 0
KAM1 190312Z 17006KT 08/M01 A30 RMK A01 T00831010  RH  052%=      5-min Rain = 0
KAM1 190313Z 17005KT 08/M01 A30 RMK A01 T00821010  RH  053%=      5-min Rain = 0
KAM1 190314Z 16005KT 08/M01 A30 RMK A01 T00831008  RH  053%=      5-min Rain = 0
KAM1 190315Z 16005KT 08/M01 A30 RMK A01 T00831008  RH  052%=      5-min Rain = 0
KAM1 190316Z 16005KT 08/M01 A30 RMK A01 T00841008  RH  052%=      5-min Rain = 0
KAM1 190317Z 16004KT 08/M01 A30 RMK A01 T00831009  RH  052%=      5-min Rain = 0
KAM1 190318Z 17003KT 08/M01 A30 RMK A01 T00831009  RH  052%=      5-min Rain = 0
KAM1 190319Z 16003KT 08/M01 A30 RMK A01 T00821009  RH  053%=      5-min Rain = 0
KAM1 190320Z 16002KT 08/M01 A30 RMK A01 T00821009  RH  053%=      5-min Rain = 0
KAM1 190321Z 15002KT 08/M01 A30 RMK A01 T00811009  RH  053%=      5-min Rain = 0
KAM1 190322Z 15002KT 08/M01 A30 RMK A01 T00811009  RH  053%=      5-min Rain = 0
KAM1 190323Z 14002KT 08/M01 A30 RMK A01 T00801009  RH  053%=      5-min Rain = 0
KAM1 190324Z 14003KT 08/M01 A30 RMK A01 T00801009  RH  053%=      5-min Rain = 0
KAM1 190325Z 14003KT 08/M01 A30 RMK A01 T00781011  RH  053%=      5-min Rain = 0
KAM1 190326Z 13003KT 08/M01 A30 RMK A01 T00771010  RH  054%=      5-min Rain = 0
KAM1 190327Z 12003KT 08/M01 A30 RMK A01 T00761010  RH  054%=      5-min Rain = 0
KAM1 190328Z 12004KT 08/M01 A30 RMK A01 T00761010  RH  054%=      5-min Rain = 0
KAM1 190329Z 12004KT 08/M01 A2999 RMK A01 T00781009  RH  054%=      5-min Rain = 0
KAM1 190330Z 12005KT 08/M01 A2999 RMK A01 T00811008  RH  054%=      5-min Rain = 0
KAM1 190331Z 12005KT 08/M01 A2999 RMK A01 T00821008  RH  053%=      5-min Rain = 0
KAM1 190332Z 12005KT 08/M01 A2999 RMK A01 T00821008  RH  053%=      5-min Rain = 0
KAM1 190333Z 12005KT 08/M01 A2999 RMK A01 T00821009  RH  053%=      5-min Rain = 0
KAM1 190334Z 13005KT 08/M01 A2999 RMK A01 T00811008  RH  053%=      5-min Rain = 0
KAM1 190335Z 13005KT 08/M01 A2999 RMK A01 T00801009  RH  053%=      5-min Rain = 0
KAM1 190336Z 13005KT 08/M01 A2999 RMK A01 T00801009  RH  053%=      5-min Rain = 0
KAM1 190337Z 13005KT 08/M01 A2999 RMK A01 T00791010  RH  053%=      5-min Rain = 0
KAM1 190338Z 14005KT 08/M01 A2999 RMK A01 T00791009  RH  054%=      5-min Rain = 0
KAM1 190339Z 14005KT 08/M01 A2999 RMK A01 T00801008  RH  054%=      5-min Rain = 0
KAM1 190340Z 14004KT 08/M01 A2999 RMK A01 T00811010  RH  053%=      5-min Rain = 0
KAM1 190341Z 13004KT 08/M01 A2999 RMK A01 T00801012  RH  052%=      5-min Rain = 0
KAM1 190342Z 13004KT 08/M01 A2999 RMK A01 T00771014  RH  053%=      5-min Rain = 0
KAM1 190343Z 13004KT 08/M01 A30 RMK A01 T00751014  RH  053%=      5-min Rain = 0
KAM1 190344Z 12004KT 07/M01 A30 RMK A01 T00731014  RH  054%=      5-min Rain = 0
KAM1 190345Z 12004KT 07/M02 A30 RMK A01 T00701015  RH  054%=      5-min Rain = 0
KAM1 190346Z 12004KT 07/M02 A30 RMK A01 T00691015  RH  055%=      5-min Rain = 0
KAM1 190347Z 12003KT 07/M02 A30 RMK A01 T00661015  RH  056%=      5-min Rain = 0
KAM1 190348Z 12003KT 06/M02 A30 RMK A01 T00621019  RH  056%=      5-min Rain = 0
KAM1 190349Z 12003KT 06/M02 A30 RMK A01 T00581019  RH  058%=      5-min Rain = 0
KAM1 190350Z 12003KT 06/M02 A30 RMK A01 T00551020  RH  058%=      5-min Rain = 0
KAM1 190351Z 12004KT 05/M02 A2999 RMK A01 T00521021  RH  059%=      5-min Rain = 0
KAM1 190352Z 12004KT 05/M02 A2999 RMK A01 T00511019  RH  060%=      5-min Rain = 0
KAM1 190353Z 11004KT 05/M02 A2999 RMK A01 T00501018  RH  061%=      5-min Rain = 0
KAM1 190354Z 10004KT 05/M02 A2999 RMK A01 T00511017  RH  061%=      5-min Rain = 0
KAM1 190355Z 10004KT 05/M02 A2999 RMK A01 T00521015  RH  062%=      5-min Rain = 0
KAM1 190356Z 10004KT 06/M01 A2999 RMK A01 T00551013  RH  061%=      5-min Rain = 0
KAM1 190357Z 10005KT 06/M01 A2999 RMK A01 T00581012  RH  061%=      5-min Rain = 0
KAM1 190358Z 11005KT 06/M01 A2999 RMK A01 T00621010  RH  060%=      5-min Rain = 0
KAM1 190359Z 11005KT 07/M01 A2999 RMK A01 T00671008  RH  059%=      5-min Rain = 0
KAM1 190400Z 11005KT 07/M01 A30 RMK A01 T00721006  RH  058%=      5-min Rain = 0
KAM1 190401Z 11005KT 08/M01 A30 RMK A01 T00751006  RH  056%=      5-min Rain = 0
KAM1 190402Z 11005KT 08/M01 A30 RMK A01 T00781006  RH  055%=      5-min Rain = 0
KAM1 190403Z 11005KT 08/M01 A30 RMK A01 T00791006  RH  055%=      5-min Rain = 0
KAM1 190404Z 12005KT 08/M01 A30 RMK A01 T00801010  RH  053%=      5-min Rain = 0
KAM1 190405Z 12005KT 08/M01 A30 RMK A01 T00781012  RH  053%=      5-min Rain = 0
KAM1 190406Z 12005KT 08/M01 A30 RMK A01 T00751012  RH  054%=      5-min Rain = 0
KAM1 190407Z 11004KT 07/M01 A30 RMK A01 T00741012  RH  055%=      5-min Rain = 0
KAM1 190408Z 11004KT 07/M01 A30 RMK A01 T00721013  RH  055%=      5-min Rain = 0
KAM1 190409Z 11004KT 07/M02 A30 RMK A01 T00701015  RH  055%=      5-min Rain = 0
KAM1 190410Z 11004KT 07/M02 A30 RMK A01 T00651019  RH  055%=      5-min Rain = 0
KAM1 190411Z 10003KT 06/M02 A30 RMK A01 T00591020  RH  057%=      5-min Rain = 0
KAM1 190412Z 10003KT 06/M02 A30 RMK A01 T00551021  RH  058%=      5-min Rain = 0
KAM1 190413Z 10003KT 05/M02 A30 RMK A01 T00501023  RH  060%=      5-min Rain = 0
KAM1 190414Z 10003KT 05/M02 A30 RMK A01 T00471020  RH  062%=      5-min Rain = 0
KAM1 190415Z 11003KT 05/M02 A30 RMK A01 T00471017  RH  063%=      5-min Rain = 0
KAM1 190416Z 11003KT 05/M01 A30 RMK A01 T00511013  RH  063%=      5-min Rain = 0
KAM1 190417Z 12003KT 06/M01 A30 RMK A01 T00561010  RH  062%=      5-min Rain = 0
KAM1 190418Z 13003KT 06/M01 A30 RMK A01 T00591010  RH  061%=      5-min Rain = 0
KAM1 190419Z 13004KT 06/M01 A30 RMK A01 T00621010  RH  060%=      5-min Rain = 0
KAM1 190420Z 14003KT 06/M01 A30 RMK A01 T00631013  RH  058%=      5-min Rain = 0
KAM1 190421Z 14003KT 06/M02 A30 RMK A01 T00621015  RH  058%=      5-min Rain = 0
KAM1 190422Z 15003KT 06/M02 A30 RMK A01 T00601016  RH  058%=      5-min Rain = 0
KAM1 190423Z 15003KT 06/M02 A30 RMK A01 T00591015  RH  059%=      5-min Rain = 0
KAM1 190424Z 15003KT 06/M01 A30 RMK A01 T00581014  RH  060%=      5-min Rain = 0
KAM1 190425Z 15003KT 06/M01 A30 RMK A01 T00581014  RH  060%=      5-min Rain = 0
KAM1 190426Z 15003KT 06/M01 A30 RMK A01 T00581013  RH  060%=      5-min Rain = 0
KAM1 190427Z 15003KT 06/M01 A30 RMK A01 T00581013  RH  060%=      5-min Rain = 0
KAM1 190428Z 15003KT 06/M01 A30 RMK A01 T00581013  RH  060%=      5-min Rain = 0
KAM1 190429Z 15004KT 06/M01 A30 RMK A01 T00581013  RH  060%=      5-min Rain = 0
KAM1 190430Z 15003KT 06/M01 A30 RMK A01 T00581012  RH  061%=      5-min Rain = 0
KAM1 190431Z 15003KT 06/M01 A30 RMK A01 T00581014  RH  060%=      5-min Rain = 0
KAM1 190432Z 16003KT 05/M02 A30 RMK A01 T00541019  RH  059%=      5-min Rain = 0
KAM1 190433Z 16003KT 05/M02 A30 RMK A01 T00481021  RH  061%=      5-min Rain = 0
KAM1 190434Z 17003KT 05/M02 A30 RMK A01 T00471018  RH  063%=      5-min Rain = 0
KAM1 190435Z 17003KT 05/M02 A30 RMK A01 T00461016  RH  064%=      5-min Rain = 0
KAM1 190436Z 17003KT 05/M01 A30 RMK A01 T00471014  RH  064%=      5-min Rain = 0
KAM1 190437Z 17003KT 05/M02 A30 RMK A01 T00481015  RH  064%=      5-min Rain = 0
KAM1 190438Z 16004KT 05/M01 A30 RMK A01 T00481014  RH  064%=      5-min Rain = 0
KAM1 190439Z 16003KT 05/M01 A30 RMK A01 T00481014  RH  064%=      5-min Rain = 0
KAM1 190440Z 16003KT 05/M01 A30 RMK A01 T00481014  RH  064%=      5-min Rain = 0
KAM1 190441Z 15004KT 05/M01 A30 RMK A01 T00481014  RH  064%=      5-min Rain = 0
KAM1 190442Z 15004KT 05/M01 A30 RMK A01 T00481013  RH  065%=      5-min Rain = 0
KAM1 190443Z 14004KT 05/M01 A2999 RMK A01 T00471013  RH  065%=      5-min Rain = 0
KAM1 190444Z 14004KT 05/M01 A2999 RMK A01 T00471011  RH  066%=      5-min Rain = 0
KAM1 190445Z 14004KT 05/M01 A2999 RMK A01 T00471011  RH  066%=      5-min Rain = 0
KAM1 190446Z 14004KT 05/M01 A2999 RMK A01 T00481010  RH  066%=      5-min Rain = 0
KAM1 190447Z 15004KT 05/M01 A2999 RMK A01 T00491008  RH  067%=      5-min Rain = 0
KAM1 190448Z 14004KT 05/M01 A2999 RMK A01 T00511007  RH  066%=      5-min Rain = 0
KAM1 190449Z 14004KT 05/M01 A2999 RMK A01 T00541006  RH  065%=      5-min Rain = 0
KAM1 190450Z 14004KT 06/M01 A2999 RMK A01 T00571006  RH  064%=      5-min Rain = 0
KAM1 190451Z 14004KT 06/M01 A2999 RMK A01 T00581007  RH  063%=      5-min Rain = 0
KAM1 190452Z 13004KT 06/M01 A2999 RMK A01 T00591007  RH  063%=      5-min Rain = 0
KAM1 190453Z 13004KT 06/M01 A2999 RMK A01 T00601007  RH  062%=      5-min Rain = 0
KAM1 190454Z 13004KT 06/M01 A2999 RMK A01 T00621006  RH  062%=      5-min Rain = 0
KAM1 190455Z 14004KT 06/M01 A2999 RMK A01 T00621006  RH  062%=      5-min Rain = 0
KAM1 190456Z 14004KT 06/M01 A2999 RMK A01 T00631006  RH  061%=      5-min Rain = 0
KAM1 190457Z 14004KT 06/M01 A2999 RMK A01 T00631007  RH  061%=      5-min Rain = 0
KAM1 190458Z 14003KT 06/M01 A2999 RMK A01 T00631007  RH  061%=      5-min Rain = 0
KAM1 190459Z 15003KT 06/M01 A2999 RMK A01 T00631007  RH  061%=      5-min Rain = 0
KAM1 190500Z 16003KT 06/M01 A2999 RMK A01 T00631007  RH  061%=      5-min Rain = 0
KAM1 190501Z 16003KT 06/M01 A2999 RMK A01 T00631008  RH  060%=      5-min Rain = 0
KAM1 190502Z 16002KT 06/M01 A2999 RMK A01 T00611012  RH  059%=      5-min Rain = 0
KAM1 190503Z 17002KT 06/M01 A2999 RMK A01 T00591011  RH  061%=      5-min Rain = 0
KAM1 190504Z 18003KT 06/M01 A30 RMK A01 T00581010  RH  062%=      5-min Rain = 0
KAM1 190505Z 18003KT 06/M01 A30 RMK A01 T00561013  RH  061%=      5-min Rain = 0
KAM1 190506Z 19003KT 05/M02 A30 RMK A01 T00521016  RH  061%=      5-min Rain = 0
KAM1 190507Z 19003KT 05/M02 A30 RMK A01 T00501016  RH  063%=      5-min Rain = 0
KAM1 190508Z 19003KT 05/M02 A30 RMK A01 T00471017  RH  063%=      5-min Rain = 0
KAM1 190509Z 20003KT 04/M02 A30 RMK A01 T00431020  RH  064%=      5-min Rain = 0
KAM1 190510Z 21003KT 04/M02 A30 RMK A01 T00391020  RH  065%=      5-min Rain = 0
KAM1 190511Z 23003KT 04/M02 A30 RMK A01 T00351021  RH  067%=      5-min Rain = 0
KAM1 190512Z 24003KT 03/M02 A30 RMK A01 T00331020  RH  068%=      5-min Rain = 0
KAM1 190513Z 25003KT 03/M02 A30 RMK A01 T00321019  RH  069%=      5-min Rain = 0
KAM1 190514Z 25004KT 03/M02 A30 RMK A01 T00321018  RH  070%=      5-min Rain = 0
KAM1 190515Z 26004KT 03/M02 A30 RMK A01 T00321017  RH  070%=      5-min Rain = 0
KAM1 190516Z 26003KT 03/M02 A30 RMK A01 T00321016  RH  071%=      5-min Rain = 0
KAM1 190517Z 26003KT 03/M02 A30 RMK A01 T00311016  RH  071%=      5-min Rain = 0
KAM1 190518Z 26003KT 03/M02 A30 RMK A01 T00301016  RH  072%=      5-min Rain = 0
KAM1 190519Z 26003KT 03/M02 A30 RMK A01 T00301015  RH  072%=      5-min Rain = 0
KAM1 190520Z 25003KT 03/M01 A30 RMK A01 T00291014  RH  073%=      5-min Rain = 0
KAM1 190521Z 25003KT 03/M01 A30 RMK A01 T00291013  RH  074%=      5-min Rain = 0
KAM1 190522Z 25003KT 03/M01 A30 RMK A01 T00311012  RH  074%=      5-min Rain = 0
KAM1 190523Z 25003KT 03/M01 A3001 RMK A01 T00311012  RH  073%=      5-min Rain = 0
KAM1 190524Z 25003KT 03/M01 A3001 RMK A01 T00311013  RH  073%=      5-min Rain = 0
KAM1 190525Z 26004KT 03/M01 A3001 RMK A01 T00301013  RH  074%=      5-min Rain = 0
KAM1 190526Z 26004KT 03/M01 A3001 RMK A01 T00291013  RH  074%=      5-min Rain = 0
KAM1 190527Z 25003KT 03/M01 A3001 RMK A01 T00291012  RH  074%=      5-min Rain = 0
KAM1 190528Z 25003KT 03/M01 A3001 RMK A01 T00291011  RH  075%=      5-min Rain = 0
KAM1 190529Z 26004KT 03/M01 A3001 RMK A01 T00291007  RH  077%=      5-min Rain = 0
KAM1 190530Z 26004KT 03/M00 A3001 RMK A01 T00291004  RH  079%=      5-min Rain = 0
KAM1 190531Z 26005KT 03/M00 A3001 RMK A01 T00291004  RH  079%=      5-min Rain = 0
KAM1 190532Z 26005KT 03/M00 A3001 RMK A01 T00291004  RH  079%=      5-min Rain = 0
KAM1 190533Z 27005KT 03/M00 A3001 RMK A01 T00291003  RH  079%=      5-min Rain = 0
KAM1 190534Z 27004KT 03/M00 A3002 RMK A01 T00281002  RH  080%=      5-min Rain = 0
KAM1 190535Z 27004KT 03/M00 A3002 RMK A01 T00281001  RH  081%=      5-min Rain = 0
KAM1 190536Z 27004KT 03/00 A3002 RMK A01 T002900-0  RH  081%=      5-min Rain = 0
KAM1 190537Z 27003KT 03/00 A3002 RMK A01 T00300001  RH  081%=      5-min Rain = 0
KAM1 190538Z 27003KT 03/00 A3002 RMK A01 T00310001  RH  081%=      5-min Rain = 0
KAM1 190539Z 26003KT 03/00 A3002 RMK A01 T00310002  RH  081%=      5-min Rain = 0
KAM1 190540Z 26003KT 03/00 A3002 RMK A01 T00320002  RH  081%=      5-min Rain = 0
KAM1 190541Z 26003KT 03/00 A3002 RMK A01 T00330002  RH  080%=      5-min Rain = 0
KAM1 190542Z 26003KT 03/00 A3002 RMK A01 T00330001  RH  080%=      5-min Rain = 0
KAM1 190543Z 25003KT 03/00 A3002 RMK A01 T00330002  RH  080%=      5-min Rain = 0
KAM1 190544Z 25003KT 03/00 A3002 RMK A01 T00330002  RH  080%=      5-min Rain = 0
KAM1 190545Z 26003KT 03/00 A3002 RMK A01 T00330002  RH  080%=      5-min Rain = 0
KAM1 190546Z 25003KT 03/00 A3002 RMK A01 T00340002  RH  080%=      5-min Rain = 0
KAM1 190547Z 25002KT 04/00 A3002 RMK A01 T00350003  RH  080%=      5-min Rain = 0
KAM1 190548Z 24002KT 04/00 A3002 RMK A01 T00350003  RH  079%=      5-min Rain = 0
KAM1 190549Z 23002KT 04/00 A3002 RMK A01 T00360003  RH  079%=      5-min Rain = 0
KAM1 190550Z 23002KT 04/00 A3002 RMK A01 T00360003  RH  079%=      5-min Rain = 0
KAM1 190551Z 22002KT 04/00 A3002 RMK A01 T00380004  RH  079%=      5-min Rain = 0
KAM1 190552Z 22003KT 04/01 A3002 RMK A01 T00400006  RH  078%=      5-min Rain = 0
KAM1 190553Z 22003KT 04/01 A3002 RMK A01 T00420007  RH  078%=      5-min Rain = 0
KAM1 190554Z 22003KT 04/01 A3002 RMK A01 T00440006  RH  076%=      5-min Rain = 0
KAM1 190555Z 23003KT 05/01 A3002 RMK A01 T00460006  RH  075%=      5-min Rain = 0
KAM1 190556Z 22003KT 05/01 A3002 RMK A01 T00480005  RH  074%=      5-min Rain = 0
KAM1 190557Z 22002KT 05/00 A3001 RMK A01 T00470004  RH  073%=      5-min Rain = 0
KAM1 190558Z 22001KT 05/00 A3001 RMK A01 T00460002  RH  073%=      5-min Rain = 0
KAM1 190559Z 22001KT 04/M00 A3001 RMK A01 T00431001  RH  073%=      5-min Rain = 0

Page generated in 0.0811 seconds.